Observation data for Colorado City on 07/02/2020      Previous  Date  Next       Current Mesonet Observations  Soil Data  Daily Summary Page  Observations in Plain Language
KCO2 020500Z 18012KT 25/17 A2996 RMK A01 T02500165  RH  059%=      5-min Rain = 0
KCO2 020501Z 18010KT 25/17 A2996 RMK A01 T02490165  RH  059%=      5-min Rain = 0
KCO2 020502Z 18012KT 25/17 A2996 RMK A01 T02490165  RH  060%=      5-min Rain = 0
KCO2 020503Z 17011KT 25/17 A2996 RMK A01 T02490165  RH  060%=      5-min Rain = 0
KCO2 020504Z 17011KT 25/17 A2996 RMK A01 T02490165  RH  060%=      5-min Rain = 0
KCO2 020505Z 18013KT 25/17 A2996 RMK A01 T02490165  RH  060%=      5-min Rain = 0
KCO2 020506Z 17012KT 25/17 A2996 RMK A01 T02480165  RH  060%=      5-min Rain = 0
KCO2 020507Z 17013KT 25/17 A2996 RMK A01 T02480166  RH  060%=      5-min Rain = 0
KCO2 020508Z 18014KT 25/17 A2996 RMK A01 T02480165  RH  060%=      5-min Rain = 0
KCO2 020509Z 17014KT 25/17 A2996 RMK A01 T02480165  RH  060%=      5-min Rain = 0
KCO2 020510Z 17013KT 25/17 A2996 RMK A01 T02490165  RH  060%=      5-min Rain = 0
KCO2 020511Z 18013KT 25/17 A2996 RMK A01 T02490166  RH  060%=      5-min Rain = 0
KCO2 020512Z 18012KT 25/17 A2996 RMK A01 T02490166  RH  060%=      5-min Rain = 0
KCO2 020513Z 18014KT 25/17 A2996 RMK A01 T02490167  RH  060%=      5-min Rain = 0
KCO2 020514Z 19012G18KT 25/17 A2996 RMK A01 T02490167  RH  060%=      5-min Rain = 0
KCO2 020515Z 20011KT 25/17 A2997 RMK A01 T02490167  RH  061%=      5-min Rain = 0
KCO2 020516Z 20011KT 25/17 A2997 RMK A01 T02480167  RH  061%=      5-min Rain = 0
KCO2 020517Z 19013KT 25/17 A2997 RMK A01 T02480167  RH  061%=      5-min Rain = 0
KCO2 020518Z 19012KT 25/17 A2997 RMK A01 T02480167  RH  061%=      5-min Rain = 0
KCO2 020519Z 19010KT 25/17 A2997 RMK A01 T02480167  RH  061%=      5-min Rain = 0
KCO2 020520Z 19010KT 25/17 A2997 RMK A01 T02480168  RH  061%=      5-min Rain = 0
KCO2 020521Z 18012KT 25/17 A2997 RMK A01 T02470168  RH  061%=      5-min Rain = 0
KCO2 020522Z 18012KT 25/17 A2997 RMK A01 T02470167  RH  061%=      5-min Rain = 0
KCO2 020523Z 17010KT 25/17 A2996 RMK A01 T02470168  RH  061%=      5-min Rain = 0
KCO2 020524Z 17011KT 25/17 A2996 RMK A01 T02460168  RH  061%=      5-min Rain = 0
KCO2 020525Z 16010KT 25/17 A2996 RMK A01 T02460168  RH  062%=      5-min Rain = 0
KCO2 020526Z 16013KT 25/17 A2996 RMK A01 T02460168  RH  062%=      5-min Rain = 0
KCO2 020527Z 16012KT 25/17 A2996 RMK A01 T02460168  RH  062%=      5-min Rain = 0
KCO2 020528Z 16013KT 25/17 A2996 RMK A01 T02460168  RH  062%=      5-min Rain = 0
KCO2 020529Z 17010KT 25/17 A2996 RMK A01 T02460168  RH  062%=      5-min Rain = 0
KCO2 020530Z 17011KT 25/17 A2996 RMK A01 T02450168  RH  062%=      5-min Rain = 0
KCO2 020531Z 17009KT 25/17 A2996 RMK A01 T02450168  RH  062%=      5-min Rain = 0
KCO2 020532Z 19010G15KT 25/17 A2996 RMK A01 T02460168  RH  062%=      5-min Rain = 0
KCO2 020533Z 19010G15KT 25/17 A2996 RMK A01 T02450168  RH  062%=      5-min Rain = 0
KCO2 020534Z 21008KT 25/17 A2997 RMK A01 T02460167  RH  062%=      5-min Rain = 0
KCO2 020535Z 21009KT 25/17 A2997 RMK A01 T02460167  RH  062%=      5-min Rain = 0
KCO2 020536Z 20006KT 25/17 A2997 RMK A01 T02460168  RH  062%=      5-min Rain = 0
KCO2 020537Z 19008KT 25/17 A2997 RMK A01 T02450168  RH  062%=      5-min Rain = 0
KCO2 020538Z 19007KT 25/17 A2997 RMK A01 T02450168  RH  062%=      5-min Rain = 0
KCO2 020539Z 18008KT 25/17 A2997 RMK A01 T02450168  RH  062%=      5-min Rain = 0
KCO2 020540Z 18013KT 25/17 A2996 RMK A01 T02450168  RH  062%=      5-min Rain = 0
KCO2 020541Z 17011G16KT 25/17 A2996 RMK A01 T02450168  RH  062%=      5-min Rain = 0
KCO2 020542Z 17009KT 25/17 A2996 RMK A01 T02450168  RH  062%=      5-min Rain = 0
KCO2 020543Z 17009KT 24/17 A2996 RMK A01 T02440168  RH  062%=      5-min Rain = 0
KCO2 020544Z 18012KT 24/17 A2996 RMK A01 T02440168  RH  063%=      5-min Rain = 0
KCO2 020545Z 16010KT 24/17 A2996 RMK A01 T02440168  RH  063%=      5-min Rain = 0
KCO2 020546Z 17010KT 24/17 A2996 RMK A01 T02430168  RH  063%=      5-min Rain = 0
KCO2 020547Z 16013KT 24/17 A2995 RMK A01 T02430169  RH  063%=      5-min Rain = 0
KCO2 020548Z 16012G17KT 24/17 A2995 RMK A01 T02430169  RH  063%=      5-min Rain = 0
KCO2 020549Z 17013KT 24/17 A2995 RMK A01 T02420168  RH  063%=      5-min Rain = 0
KCO2 020550Z 17013KT 24/17 A2995 RMK A01 T02420168  RH  063%=      5-min Rain = 0
KCO2 020551Z 16010KT 24/17 A2996 RMK A01 T02420168  RH  063%=      5-min Rain = 0
KCO2 020552Z 17010KT 24/17 A2995 RMK A01 T02420169  RH  064%=      5-min Rain = 0
KCO2 020553Z 17010KT 24/17 A2996 RMK A01 T02410169  RH  064%=      5-min Rain = 0
KCO2 020554Z 18011KT 24/17 A2995 RMK A01 T02410169  RH  064%=      5-min Rain = 0
KCO2 020555Z 18010KT 24/17 A2996 RMK A01 T02400169  RH  064%=      5-min Rain = 0
KCO2 020556Z 18009KT 24/17 A2996 RMK A01 T02410169  RH  064%=      5-min Rain = 0
KCO2 020557Z 18009KT 24/17 A2996 RMK A01 T02410169  RH  064%=      5-min Rain = 0
KCO2 020558Z 18009KT 24/17 A2996 RMK A01 T02400169  RH  064%=      5-min Rain = 0
KCO2 020559Z 18007KT 24/17 A2996 RMK A01 T02400169  RH  065%=      5-min Rain = 0
KCO2 020600Z 18008KT 24/17 A2996 RMK A01 T02400169  RH  065%=      5-min Rain = 0
KCO2 020601Z 17007KT 24/17 A2996 RMK A01 T02390170  RH  065%=      5-min Rain = 0
KCO2 020602Z 17008KT 24/17 A2996 RMK A01 T02390169  RH  065%=      5-min Rain = 0
KCO2 020603Z 17009KT 24/17 A2995 RMK A01 T02390170  RH  065%=      5-min Rain = 0
KCO2 020604Z 17010KT 24/17 A2995 RMK A01 T02390169  RH  065%=      5-min Rain = 0
KCO2 020605Z 18009KT 24/17 A2995 RMK A01 T02390169  RH  065%=      5-min Rain = 0
KCO2 020606Z 17011KT 24/17 A2995 RMK A01 T02390169  RH  065%=      5-min Rain = 0
KCO2 020607Z 17009KT 24/17 A2995 RMK A01 T02390169  RH  065%=      5-min Rain = 0
KCO2 020608Z 17008KT 24/17 A2995 RMK A01 T02390169  RH  065%=      5-min Rain = 0
KCO2 020609Z 17009KT 24/17 A2995 RMK A01 T02390169  RH  065%=      5-min Rain = 0
KCO2 020610Z 18011KT 24/17 A2995 RMK A01 T02390170  RH  065%=      5-min Rain = 0
KCO2 020611Z 17011KT 24/17 A2995 RMK A01 T02390169  RH  065%=      5-min Rain = 0
KCO2 020612Z 17009KT 24/17 A2995 RMK A01 T02390170  RH  065%=      5-min Rain = 0
KCO2 020613Z 18009KT 24/17 A2995 RMK A01 T02390170  RH  065%=      5-min Rain = 0
KCO2 020614Z 18011KT 24/17 A2995 RMK A01 T02390170  RH  065%=      5-min Rain = 0
KCO2 020615Z 18012KT 24/17 A2995 RMK A01 T02390170  RH  065%=      5-min Rain = 0
KCO2 020616Z 18012KT 24/17 A2995 RMK A01 T02390170  RH  065%=      5-min Rain = 0
KCO2 020617Z 18012KT 24/17 A2995 RMK A01 T02390170  RH  065%=      5-min Rain = 0
KCO2 020618Z 18008KT 24/17 A2995 RMK A01 T02390170  RH  065%=      5-min Rain = 0
KCO2 020619Z 18010KT 24/17 A2995 RMK A01 T02390171  RH  066%=      5-min Rain = 0
KCO2 020620Z 18009KT 24/17 A2995 RMK A01 T02380171  RH  066%=      5-min Rain = 0
KCO2 020621Z 19010KT 24/17 A2995 RMK A01 T02380171  RH  066%=      5-min Rain = 0
KCO2 020622Z 19008KT 24/17 A2995 RMK A01 T02370171  RH  066%=      5-min Rain = 0
KCO2 020623Z 19007KT 24/17 A2995 RMK A01 T02370171  RH  067%=      5-min Rain = 0
KCO2 020624Z 20009KT 24/17 A2995 RMK A01 T02360171  RH  067%=      5-min Rain = 0
KCO2 020625Z 19008KT 24/17 A2995 RMK A01 T02360171  RH  067%=      5-min Rain = 0
KCO2 020626Z 19006KT 24/17 A2995 RMK A01 T02360171  RH  067%=      5-min Rain = 0
KCO2 020627Z 19009KT 24/17 A2995 RMK A01 T02360172  RH  067%=      5-min Rain = 0
KCO2 020628Z 19007KT 24/17 A2995 RMK A01 T02360172  RH  067%=      5-min Rain = 0
KCO2 020629Z 19008KT 24/17 A2995 RMK A01 T02350172  RH  068%=      5-min Rain = 0
KCO2 020630Z 19007KT 24/17 A2995 RMK A01 T02350172  RH  068%=      5-min Rain = 0
KCO2 020631Z 19007KT 23/17 A2995 RMK A01 T02340172  RH  068%=      5-min Rain = 0
KCO2 020632Z 18008KT 23/17 A2995 RMK A01 T02340173  RH  068%=      5-min Rain = 0
KCO2 020633Z 18007KT 23/17 A2995 RMK A01 T02330172  RH  068%=      5-min Rain = 0
KCO2 020634Z 18007KT 23/17 A2995 RMK A01 T02330173  RH  069%=      5-min Rain = 0
KCO2 020635Z 18009KT 23/17 A2995 RMK A01 T02320173  RH  069%=      5-min Rain = 0
KCO2 020636Z 18008KT 23/17 A2995 RMK A01 T02320173  RH  069%=      5-min Rain = 0
KCO2 020637Z 17009KT 23/17 A2995 RMK A01 T02320173  RH  069%=      5-min Rain = 0
KCO2 020638Z 17008KT 23/17 A2995 RMK A01 T02320173  RH  069%=      5-min Rain = 0
KCO2 020639Z 17007KT 23/17 A2995 RMK A01 T02320173  RH  070%=      5-min Rain = 0
KCO2 020640Z 17007KT 23/17 A2995 RMK A01 T02310173  RH  070%=      5-min Rain = 0
KCO2 020641Z 17007KT 23/17 A2995 RMK A01 T02310174  RH  070%=      5-min Rain = 0
KCO2 020642Z 17008KT 23/17 A2995 RMK A01 T02300174  RH  070%=      5-min Rain = 0
KCO2 020643Z 17009KT 23/17 A2995 RMK A01 T02300173  RH  071%=      5-min Rain = 0
KCO2 020644Z 17008KT 23/17 A2995 RMK A01 T02300173  RH  071%=      5-min Rain = 0
KCO2 020645Z 16008KT 23/17 A2995 RMK A01 T02290173  RH  071%=      5-min Rain = 0
KCO2 020646Z 16007KT 23/17 A2995 RMK A01 T02300174  RH  071%=      5-min Rain = 0
KCO2 020647Z 16007KT 23/17 A2995 RMK A01 T02290174  RH  071%=      5-min Rain = 0
KCO2 020648Z 17007KT 23/17 A2995 RMK A01 T02290174  RH  071%=      5-min Rain = 0
KCO2 020649Z 16006KT 23/17 A2995 RMK A01 T02280174  RH  072%=      5-min Rain = 0
KCO2 020650Z 16007KT 23/17 A2995 RMK A01 T02280174  RH  072%=      5-min Rain = 0
KCO2 020651Z 16006KT 23/17 A2995 RMK A01 T02270174  RH  072%=      5-min Rain = 0
KCO2 020652Z 17005KT 23/18 A2995 RMK A01 T02270175  RH  072%=      5-min Rain = 0
KCO2 020653Z 17006KT 23/17 A2995 RMK A01 T02270174  RH  072%=      5-min Rain = 0
KCO2 020654Z 17007KT 23/17 A2995 RMK A01 T02260174  RH  072%=      5-min Rain = 0
KCO2 020655Z 17006KT 23/17 A2995 RMK A01 T02260174  RH  072%=      5-min Rain = 0
KCO2 020656Z 18006KT 23/17 A2995 RMK A01 T02270174  RH  072%=      5-min Rain = 0
KCO2 020657Z 18005KT 23/17 A2995 RMK A01 T02270174  RH  072%=      5-min Rain = 0
KCO2 020658Z 17006KT 23/17 A2996 RMK A01 T02270174  RH  072%=      5-min Rain = 0
KCO2 020659Z 19006KT 23/17 A2996 RMK A01 T02260174  RH  072%=      5-min Rain = 0
KCO2 020700Z 19005KT 23/17 A2996 RMK A01 T02260174  RH  072%=      5-min Rain = 0
KCO2 020701Z 19005KT 23/17 A2995 RMK A01 T02260174  RH  073%=      5-min Rain = 0
KCO2 020702Z 19006KT 23/17 A2995 RMK A01 T02250174  RH  073%=      5-min Rain = 0
KCO2 020703Z 19005KT 23/17 A2995 RMK A01 T02250174  RH  073%=      5-min Rain = 0
KCO2 020704Z 19004KT 23/17 A2996 RMK A01 T02250174  RH  073%=      5-min Rain = 0
KCO2 020705Z 18005KT 23/17 A2996 RMK A01 T02250174  RH  073%=      5-min Rain = 0
KCO2 020706Z 19005KT 23/17 A2996 RMK A01 T02250174  RH  073%=      5-min Rain = 0
KCO2 020707Z 18005KT 22/17 A2996 RMK A01 T02240174  RH  073%=      5-min Rain = 0
KCO2 020708Z 18005KT 22/17 A2996 RMK A01 T02240174  RH  073%=      5-min Rain = 0
KCO2 020709Z 19005KT 22/17 A2996 RMK A01 T02240174  RH  073%=      5-min Rain = 0
KCO2 020710Z 18005KT 22/17 A2995 RMK A01 T02230174  RH  074%=      5-min Rain = 0
KCO2 020711Z 18005KT 22/17 A2995 RMK A01 T02230174  RH  074%=      5-min Rain = 0
KCO2 020712Z 17005KT 22/17 A2995 RMK A01 T02230174  RH  074%=      5-min Rain = 0
KCO2 020713Z 18005KT 22/17 A2995 RMK A01 T02230174  RH  074%=      5-min Rain = 0
KCO2 020714Z 18005KT 22/17 A2995 RMK A01 T02230174  RH  074%=      5-min Rain = 0
KCO2 020715Z 18004KT 22/17 A2995 RMK A01 T02220174  RH  074%=      5-min Rain = 0
KCO2 020716Z 18005KT 22/17 A2995 RMK A01 T02210174  RH  074%=      5-min Rain = 0
KCO2 020717Z 18004KT 22/17 A2995 RMK A01 T02210174  RH  074%=      5-min Rain = 0
KCO2 020718Z 18005KT 22/17 A2995 RMK A01 T02210173  RH  075%=      5-min Rain = 0
KCO2 020719Z 18004KT 22/17 A2995 RMK A01 T02210174  RH  075%=      5-min Rain = 0
KCO2 020720Z 17003KT 22/17 A2995 RMK A01 T02200173  RH  075%=      5-min Rain = 0
KCO2 020721Z 17004KT 22/17 A2995 RMK A01 T02200174  RH  075%=      5-min Rain = 0
KCO2 020722Z 16004KT 22/17 A2995 RMK A01 T02200173  RH  075%=      5-min Rain = 0
KCO2 020723Z 16004KT 22/17 A2995 RMK A01 T02190173  RH  075%=      5-min Rain = 0
KCO2 020724Z 16004KT 22/17 A2995 RMK A01 T02190174  RH  075%=      5-min Rain = 0
KCO2 020725Z 17004KT 22/17 A2995 RMK A01 T02190173  RH  075%=      5-min Rain = 0
KCO2 020726Z 18004KT 22/17 A2995 RMK A01 T02180173  RH  076%=      5-min Rain = 0
KCO2 020727Z 18004KT 22/17 A2995 RMK A01 T02170173  RH  076%=      5-min Rain = 0
KCO2 020728Z 18004KT 22/17 A2995 RMK A01 T02170173  RH  076%=      5-min Rain = 0
KCO2 020729Z 17004KT 22/17 A2995 RMK A01 T02170173  RH  076%=      5-min Rain = 0
KCO2 020730Z 17005KT 22/17 A2995 RMK A01 T02170173  RH  076%=      5-min Rain = 0
KCO2 020731Z 18004KT 22/17 A2995 RMK A01 T02160173  RH  076%=      5-min Rain = 0
KCO2 020732Z 18004KT 22/17 A2995 RMK A01 T02160173  RH  077%=      5-min Rain = 0
KCO2 020733Z 19004KT 22/17 A2995 RMK A01 T02150173  RH  077%=      5-min Rain = 0
KCO2 020734Z 18004KT 21/17 A2995 RMK A01 T02140173  RH  077%=      5-min Rain = 0
KCO2 020735Z 18004KT 21/17 A2995 RMK A01 T02140173  RH  077%=      5-min Rain = 0
KCO2 020736Z 18004KT 21/17 A2995 RMK A01 T02140173  RH  078%=      5-min Rain = 0
KCO2 020737Z 18004KT 21/17 A2995 RMK A01 T02130173  RH  078%=      5-min Rain = 0
KCO2 020738Z 17004KT 21/17 A2995 RMK A01 T02130173  RH  078%=      5-min Rain = 0
KCO2 020739Z 17004KT 21/17 A2995 RMK A01 T02130173  RH  078%=      5-min Rain = 0
KCO2 020740Z 16004KT 21/17 A2995 RMK A01 T02120173  RH  078%=      5-min Rain = 0
KCO2 020741Z 16004KT 21/17 A2995 RMK A01 T02120173  RH  078%=      5-min Rain = 0
KCO2 020742Z 16004KT 21/17 A2995 RMK A01 T02120173  RH  078%=      5-min Rain = 0
KCO2 020743Z 16004KT 21/17 A2995 RMK A01 T02110172  RH  079%=      5-min Rain = 0
KCO2 020744Z 16004KT 21/17 A2995 RMK A01 T02100172  RH  079%=      5-min Rain = 0
KCO2 020745Z 16004KT 21/17 A2995 RMK A01 T02100172  RH  079%=      5-min Rain = 0
KCO2 020746Z 16004KT 21/17 A2995 RMK A01 T02100173  RH  079%=      5-min Rain = 0
KCO2 020747Z 16004KT 21/17 A2995 RMK A01 T02100172  RH  079%=      5-min Rain = 0
KCO2 020748Z 16004KT 21/17 A2995 RMK A01 T02100172  RH  079%=      5-min Rain = 0
KCO2 020749Z 16004KT 21/17 A2995 RMK A01 T02100172  RH  079%=      5-min Rain = 0
KCO2 020750Z 16004KT 21/17 A2995 RMK A01 T02110172  RH  079%=      5-min Rain = 0
KCO2 020751Z 16004KT 21/17 A2995 RMK A01 T02110172  RH  078%=      5-min Rain = 0
KCO2 020752Z 16004KT 21/17 A2995 RMK A01 T02120172  RH  078%=      5-min Rain = 0
KCO2 020753Z 16005KT 21/17 A2995 RMK A01 T02110172  RH  078%=      5-min Rain = 0
KCO2 020754Z 17005KT 21/17 A2995 RMK A01 T02120171  RH  078%=      5-min Rain = 0
KCO2 020755Z 17005KT 21/17 A2995 RMK A01 T02120171  RH  078%=      5-min Rain = 0
KCO2 020756Z 17005KT 21/17 A2995 RMK A01 T02110172  RH  078%=      5-min Rain = 0
KCO2 020757Z 17005KT 21/17 A2995 RMK A01 T02110172  RH  078%=      5-min Rain = 0
KCO2 020758Z 17005KT 21/17 A2995 RMK A01 T02110172  RH  079%=      5-min Rain = 0
KCO2 020759Z 17005KT 21/17 A2995 RMK A01 T02110172  RH  079%=      5-min Rain = 0
KCO2 020800Z 17005KT 21/17 A2995 RMK A01 T02110173  RH  079%=      5-min Rain = 0
KCO2 020801Z 17005KT 21/17 A2995 RMK A01 T02100172  RH  079%=      5-min Rain = 0
KCO2 020802Z 17005KT 21/17 A2995 RMK A01 T02100173  RH  079%=      5-min Rain = 0
KCO2 020803Z 17005KT 21/17 A2995 RMK A01 T02090172  RH  080%=      5-min Rain = 0
KCO2 020804Z 17005KT 21/17 A2995 RMK A01 T02090173  RH  080%=      5-min Rain = 0
KCO2 020805Z 17005KT 21/17 A2995 RMK A01 T02080173  RH  080%=      5-min Rain = 0
KCO2 020806Z 17006KT 21/17 A2995 RMK A01 T02080173  RH  080%=      5-min Rain = 0
KCO2 020807Z 18006KT 21/17 A2995 RMK A01 T02070172  RH  080%=      5-min Rain = 0
KCO2 020808Z 18006KT 21/17 A2995 RMK A01 T02070173  RH  081%=      5-min Rain = 0
KCO2 020809Z 18006KT 21/17 A2995 RMK A01 T02060173  RH  081%=      5-min Rain = 0
KCO2 020810Z 17007KT 21/17 A2994 RMK A01 T02060173  RH  081%=      5-min Rain = 0
KCO2 020811Z 18007KT 21/17 A2994 RMK A01 T02050173  RH  082%=      5-min Rain = 0
KCO2 020812Z 17007KT 21/17 A2994 RMK A01 T02050173  RH  082%=      5-min Rain = 0
KCO2 020813Z 18007KT 21/17 A2994 RMK A01 T02050173  RH  082%=      5-min Rain = 0
KCO2 020814Z 17007KT 21/17 A2994 RMK A01 T02050173  RH  082%=      5-min Rain = 0
KCO2 020815Z 17006KT 21/17 A2994 RMK A01 T02060173  RH  082%=      5-min Rain = 0
KCO2 020816Z 17006KT 21/17 A2994 RMK A01 T02060173  RH  082%=      5-min Rain = 0
KCO2 020817Z 17006KT 21/17 A2994 RMK A01 T02060173  RH  081%=      5-min Rain = 0
KCO2 020818Z 17006KT 21/17 A2994 RMK A01 T02070173  RH  081%=      5-min Rain = 0
KCO2 020819Z 17006KT 21/17 A2994 RMK A01 T02070173  RH  081%=      5-min Rain = 0
KCO2 020820Z 17006KT 21/17 A2994 RMK A01 T02080173  RH  081%=      5-min Rain = 0
KCO2 020821Z 17005KT 21/17 A2994 RMK A01 T02080173  RH  080%=      5-min Rain = 0
KCO2 020822Z 16005KT 21/17 A2994 RMK A01 T02090174  RH  080%=      5-min Rain = 0
KCO2 020823Z 16005KT 21/17 A2994 RMK A01 T02080173  RH  080%=      5-min Rain = 0
KCO2 020824Z 16005KT 21/17 A2994 RMK A01 T02080174  RH  080%=      5-min Rain = 0
KCO2 020825Z 15005KT 21/17 A2994 RMK A01 T02080174  RH  081%=      5-min Rain = 0
KCO2 020826Z 15005KT 21/17 A2994 RMK A01 T02070174  RH  081%=      5-min Rain = 0
KCO2 020827Z 14005KT 21/17 A2994 RMK A01 T02060174  RH  081%=      5-min Rain = 0
KCO2 020828Z 14005KT 21/17 A2994 RMK A01 T02060174  RH  082%=      5-min Rain = 0
KCO2 020829Z 14005KT 21/17 A2994 RMK A01 T02050174  RH  082%=      5-min Rain = 0
KCO2 020830Z 15005KT 20/17 A2994 RMK A01 T02040174  RH  083%=      5-min Rain = 0
KCO2 020831Z 15005KT 20/17 A2994 RMK A01 T02040174  RH  083%=      5-min Rain = 0
KCO2 020832Z 15005KT 20/17 A2994 RMK A01 T02030174  RH  083%=      5-min Rain = 0
KCO2 020833Z 15005KT 20/17 A2994 RMK A01 T02030174  RH  083%=      5-min Rain = 0
KCO2 020834Z 15005KT 20/17 A2994 RMK A01 T02030174  RH  084%=      5-min Rain = 0
KCO2 020835Z 14005KT 20/17 A2994 RMK A01 T02020174  RH  084%=      5-min Rain = 0
KCO2 020836Z 14005KT 20/17 A2994 RMK A01 T02030174  RH  084%=      5-min Rain = 0
KCO2 020837Z 14005KT 20/17 A2994 RMK A01 T02020174  RH  084%=      5-min Rain = 0
KCO2 020838Z 14005KT 20/17 A2994 RMK A01 T02020174  RH  084%=      5-min Rain = 0
KCO2 020839Z 14005KT 20/17 A2994 RMK A01 T02020174  RH  084%=      5-min Rain = 0
KCO2 020840Z 14004KT 20/18 A2994 RMK A01 T02020175  RH  084%=      5-min Rain = 0
KCO2 020841Z 14005KT 20/18 A2994 RMK A01 T02020175  RH  084%=      5-min Rain = 0
KCO2 020842Z 14005KT 20/18 A2994 RMK A01 T02020175  RH  084%=      5-min Rain = 0
KCO2 020843Z 14005KT 20/18 A2994 RMK A01 T02020175  RH  084%=      5-min Rain = 0
KCO2 020844Z 14004KT 20/18 A2994 RMK A01 T02020175  RH  085%=      5-min Rain = 0
KCO2 020845Z 14004KT 20/18 A2994 RMK A01 T02030176  RH  085%=      5-min Rain = 0
KCO2 020846Z 13004KT 20/18 A2994 RMK A01 T02020176  RH  085%=      5-min Rain = 0
KCO2 020847Z 13004KT 20/18 A2994 RMK A01 T02020176  RH  085%=      5-min Rain = 0
KCO2 020848Z 13004KT 20/18 A2994 RMK A01 T02020176  RH  085%=      5-min Rain = 0
KCO2 020849Z 13004KT 20/18 A2994 RMK A01 T02020176  RH  085%=      5-min Rain = 0
KCO2 020850Z 13004KT 20/18 A2994 RMK A01 T02020176  RH  085%=      5-min Rain = 0
KCO2 020851Z 14005KT 20/18 A2994 RMK A01 T02020176  RH  085%=      5-min Rain = 0
KCO2 020852Z 14004KT 20/18 A2994 RMK A01 T02020175  RH  085%=      5-min Rain = 0
KCO2 020853Z 13005KT 20/18 A2993 RMK A01 T02020175  RH  085%=      5-min Rain = 0
KCO2 020854Z 13005KT 20/18 A2993 RMK A01 T02020175  RH  085%=      5-min Rain = 0
KCO2 020855Z 14005KT 20/18 A2993 RMK A01 T02020176  RH  085%=      5-min Rain = 0
KCO2 020856Z 13005KT 20/18 A2993 RMK A01 T02020176  RH  085%=      5-min Rain = 0
KCO2 020857Z 13005KT 20/18 A2993 RMK A01 T02020176  RH  085%=      5-min Rain = 0
KCO2 020858Z 13005KT 20/18 A2993 RMK A01 T02020175  RH  085%=      5-min Rain = 0
KCO2 020859Z 13005KT 20/18 A2993 RMK A01 T02020175  RH  084%=      5-min Rain = 0
KCO2 020900Z 13005KT 20/18 A2993 RMK A01 T02030176  RH  084%=      5-min Rain = 0
KCO2 020901Z 13005KT 20/18 A2993 RMK A01 T02020176  RH  085%=      5-min Rain = 0
KCO2 020902Z 13005KT 20/18 A2993 RMK A01 T02030176  RH  085%=      5-min Rain = 0
KCO2 020903Z 13005KT 20/18 A2993 RMK A01 T02030176  RH  085%=      5-min Rain = 0
KCO2 020904Z 13005KT 20/18 A2993 RMK A01 T02020176  RH  085%=      5-min Rain = 0
KCO2 020905Z 13005KT 20/18 A2993 RMK A01 T02020176  RH  085%=      5-min Rain = 0
KCO2 020906Z 14005KT 20/18 A2993 RMK A01 T02010176  RH  085%=      5-min Rain = 0
KCO2 020907Z 14005KT 20/18 A2993 RMK A01 T02010175  RH  085%=      5-min Rain = 0
KCO2 020908Z 15005KT 20/18 A2993 RMK A01 T02020175  RH  085%=      5-min Rain = 0
KCO2 020909Z 15005KT 20/18 A2993 RMK A01 T02020175  RH  084%=      5-min Rain = 0
KCO2 020910Z 15005KT 20/17 A2993 RMK A01 T02020174  RH  084%=      5-min Rain = 0
KCO2 020911Z 15005KT 20/17 A2993 RMK A01 T02010174  RH  084%=      5-min Rain = 0
KCO2 020912Z 15006KT 20/17 A2993 RMK A01 T02020174  RH  084%=      5-min Rain = 0
KCO2 020913Z 15006KT 20/17 A2993 RMK A01 T02030173  RH  083%=      5-min Rain = 0
KCO2 020914Z 15006KT 20/17 A2993 RMK A01 T02030173  RH  083%=      5-min Rain = 0
KCO2 020915Z 15006KT 20/17 A2993 RMK A01 T02040172  RH  082%=      5-min Rain = 0
KCO2 020916Z 15006KT 21/17 A2993 RMK A01 T02050172  RH  081%=      5-min Rain = 0
KCO2 020917Z 15005KT 21/17 A2993 RMK A01 T02060172  RH  081%=      5-min Rain = 0
KCO2 020918Z 15005KT 21/17 A2993 RMK A01 T02060172  RH  080%=      5-min Rain = 0
KCO2 020919Z 15005KT 21/17 A2993 RMK A01 T02070172  RH  080%=      5-min Rain = 0
KCO2 020920Z 15005KT 21/17 A2993 RMK A01 T02070172  RH  080%=      5-min Rain = 0
KCO2 020921Z 16005KT 21/17 A2993 RMK A01 T02070172  RH  081%=      5-min Rain = 0
KCO2 020922Z 16005KT 21/17 A2993 RMK A01 T02060172  RH  081%=      5-min Rain = 0
KCO2 020923Z 17004KT 21/17 A2994 RMK A01 T02060173  RH  081%=      5-min Rain = 0
KCO2 020924Z 18004KT 21/17 A2994 RMK A01 T02060172  RH  081%=      5-min Rain = 0
KCO2 020925Z 19005KT 21/17 A2994 RMK A01 T02060172  RH  081%=      5-min Rain = 0
KCO2 020926Z 20005KT 21/17 A2994 RMK A01 T02060173  RH  081%=      5-min Rain = 0
KCO2 020927Z 20005KT 21/17 A2994 RMK A01 T02060173  RH  081%=      5-min Rain = 0
KCO2 020928Z 20005KT 21/17 A2994 RMK A01 T02050173  RH  082%=      5-min Rain = 0
KCO2 020929Z 19004KT 21/17 A2994 RMK A01 T02050172  RH  082%=      5-min Rain = 0
KCO2 020930Z 19005KT 21/17 A2994 RMK A01 T02050172  RH  082%=      5-min Rain = 0
KCO2 020931Z 19005KT 21/17 A2994 RMK A01 T02050173  RH  082%=      5-min Rain = 0
KCO2 020932Z 18004KT 20/17 A2994 RMK A01 T02040172  RH  082%=      5-min Rain = 0
KCO2 020933Z 18003KT 20/17 A2994 RMK A01 T02040172  RH  082%=      5-min Rain = 0
KCO2 020934Z 20003KT 20/17 A2994 RMK A01 T02030172  RH  082%=      5-min Rain = 0
KCO2 020935Z 21003KT 20/17 A2995 RMK A01 T02030172  RH  082%=      5-min Rain = 0
KCO2 020936Z 22004KT 20/17 A2995 RMK A01 T02030172  RH  083%=      5-min Rain = 0
KCO2 020937Z 23004KT 20/17 A2995 RMK A01 T02030172  RH  083%=      5-min Rain = 0
KCO2 020938Z 24004KT 20/17 A2995 RMK A01 T02020171  RH  082%=      5-min Rain = 0
KCO2 020939Z 25004KT 20/17 A2996 RMK A01 T02010171  RH  083%=      5-min Rain = 0
KCO2 020940Z 25004KT 20/17 A2996 RMK A01 T02000171  RH  083%=      5-min Rain = 0
KCO2 020941Z 27003KT 20/17 A2996 RMK A01 T01990171  RH  084%=      5-min Rain = 0
KCO2 020942Z 28003KT 20/17 A2995 RMK A01 T01970170  RH  084%=      5-min Rain = 0
KCO2 020943Z 28003KT 20/17 A2995 RMK A01 T01960170  RH  085%=      5-min Rain = 0
KCO2 020944Z 29003KT 20/17 A2995 RMK A01 T01960170  RH  085%=      5-min Rain = 0
KCO2 020945Z 30003KT 20/17 A2995 RMK A01 T01950170  RH  085%=      5-min Rain = 0
KCO2 020946Z 31002KT 20/17 A2995 RMK A01 T01950170  RH  085%=      5-min Rain = 0
KCO2 020947Z 31003KT 20/17 A2995 RMK A01 T01950170  RH  086%=      5-min Rain = 0
KCO2 020948Z 31003KT 20/17 A2995 RMK A01 T01950170  RH  086%=      5-min Rain = 0
KCO2 020949Z 30003KT 19/17 A2995 RMK A01 T01940170  RH  086%=      5-min Rain = 0
KCO2 020950Z 29004KT 19/17 A2995 RMK A01 T01930170  RH  086%=      5-min Rain = 0
KCO2 020951Z 29003KT 19/17 A2996 RMK A01 T01930170  RH  087%=      5-min Rain = 0
KCO2 020952Z 28003KT 19/17 A2996 RMK A01 T01930170  RH  087%=      5-min Rain = 0
KCO2 020953Z 29003KT 19/17 A2996 RMK A01 T01930170  RH  087%=      5-min Rain = 0
KCO2 020954Z 31002KT 19/17 A2996 RMK A01 T01930171  RH  087%=      5-min Rain = 0
KCO2 020955Z 32002KT 19/17 A2996 RMK A01 T01930170  RH  087%=      5-min Rain = 0
KCO2 020956Z 34001KT 19/17 A2996 RMK A01 T01930170  RH  087%=      5-min Rain = 0
KCO2 020957Z 34000KT 19/17 A2996 RMK A01 T01930171  RH  087%=      5-min Rain = 0
KCO2 020958Z 34001KT 19/17 A2996 RMK A01 T01930171  RH  087%=      5-min Rain = 0
KCO2 020959Z 34000KT 19/17 A2996 RMK A01 T01930171  RH  087%=      5-min Rain = 0
KCO2 021000Z 00000KT 19/17 A2996 RMK A01 T01930171  RH  087%=      5-min Rain = 0
KCO2 021001Z 19001KT 19/17 A2996 RMK A01 T01940171  RH  087%=      5-min Rain = 0
KCO2 021002Z 11001KT 19/17 A2996 RMK A01 T01930170  RH  086%=      5-min Rain = 0
KCO2 021003Z 23001KT 19/17 A2996 RMK A01 T01920170  RH  087%=      5-min Rain = 0
KCO2 021004Z 25000KT 19/17 A2996 RMK A01 T01920170  RH  087%=      5-min Rain = 0
KCO2 021005Z 00000KT 19/17 A2996 RMK A01 T01910169  RH  087%=      5-min Rain = 0
KCO2 021006Z 29000KT 19/17 A2996 RMK A01 T01910170  RH  088%=      5-min Rain = 0
KCO2 021007Z 31001KT 19/17 A2996 RMK A01 T01910171  RH  088%=      5-min Rain = 0
KCO2 021008Z 34001KT 19/17 A2996 RMK A01 T01920171  RH  088%=      5-min Rain = 0
KCO2 021009Z 34001KT 19/17 A2996 RMK A01 T01920171  RH  087%=      5-min Rain = 0
KCO2 021010Z 30001KT 19/17 A2996 RMK A01 T01920171  RH  087%=      5-min Rain = 0
KCO2 021011Z 30001KT 19/17 A2996 RMK A01 T01930170  RH  087%=      5-min Rain = 0
KCO2 021012Z 30000KT 19/17 A2996 RMK A01 T01930170  RH  087%=      5-min Rain = 0
KCO2 021013Z 00000KT 19/17 A2996 RMK A01 T01940171  RH  087%=      5-min Rain = 0
KCO2 021014Z 30000KT 20/17 A2996 RMK A01 T01950171  RH  086%=      5-min Rain = 0
KCO2 021015Z 30000KT 20/17 A2996 RMK A01 T01950170  RH  085%=      5-min Rain = 0
KCO2 021016Z 30000KT 20/17 A2996 RMK A01 T01950170  RH  085%=      5-min Rain = 0
KCO2 021017Z 30000KT 20/17 A2996 RMK A01 T01950169  RH  085%=      5-min Rain = 0
KCO2 021018Z 00000KT 20/17 A2996 RMK A01 T01950169  RH  085%=      5-min Rain = 0
KCO2 021019Z 00000KT 20/17 A2996 RMK A01 T01950170  RH  085%=      5-min Rain = 0
KCO2 021020Z 00000KT 19/17 A2996 RMK A01 T01940170  RH  086%=      5-min Rain = 0
KCO2 021021Z 00000KT 19/17 A2996 RMK A01 T01940170  RH  086%=      5-min Rain = 0
KCO2 021022Z 00000KT 19/17 A2996 RMK A01 T01940170  RH  086%=      5-min Rain = 0
KCO2 021023Z 20001KT 19/17 A2996 RMK A01 T01940170  RH  086%=      5-min Rain = 0
KCO2 021024Z 20001KT 20/17 A2996 RMK A01 T01950170  RH  085%=      5-min Rain = 0
KCO2 021025Z 18002KT 20/17 A2996 RMK A01 T01960170  RH  085%=      5-min Rain = 0
KCO2 021026Z 18002KT 20/17 A2996 RMK A01 T01970170  RH  084%=      5-min Rain = 0
KCO2 021027Z 16003KT 20/17 A2996 RMK A01 T01990170  RH  083%=      5-min Rain = 0
KCO2 021028Z 15003KT 20/17 A2996 RMK A01 T02010170  RH  082%=      5-min Rain = 0
KCO2 021029Z 16003KT 20/17 A2996 RMK A01 T02010169  RH  082%=      5-min Rain = 0
KCO2 021030Z 16003KT 20/17 A2996 RMK A01 T02010169  RH  082%=      5-min Rain = 0
KCO2 021031Z 16003KT 20/17 A2996 RMK A01 T02000169  RH  082%=      5-min Rain = 0
KCO2 021032Z 16003KT 20/17 A2996 RMK A01 T01990169  RH  083%=      5-min Rain = 0
KCO2 021033Z 16003KT 20/17 A2996 RMK A01 T01990169  RH  083%=      5-min Rain = 0
KCO2 021034Z 15003KT 20/17 A2996 RMK A01 T01980169  RH  083%=      5-min Rain = 0
KCO2 021035Z 15004KT 20/17 A2996 RMK A01 T01980169  RH  083%=      5-min Rain = 0
KCO2 021036Z 15004KT 20/17 A2996 RMK A01 T01980168  RH  083%=      5-min Rain = 0
KCO2 021037Z 15004KT 20/17 A2996 RMK A01 T01970168  RH  084%=      5-min Rain = 0
KCO2 021038Z 15004KT 20/17 A2996 RMK A01 T01960168  RH  084%=      5-min Rain = 0
KCO2 021039Z 14004KT 20/17 A2996 RMK A01 T01960168  RH  084%=      5-min Rain = 0
KCO2 021040Z 14004KT 20/17 A2996 RMK A01 T01950169  RH  084%=      5-min Rain = 0
KCO2 021041Z 15004KT 20/17 A2996 RMK A01 T01950168  RH  085%=      5-min Rain = 0
KCO2 021042Z 15004KT 20/17 A2997 RMK A01 T01950169  RH  085%=      5-min Rain = 0
KCO2 021043Z 14004KT 19/17 A2997 RMK A01 T01940169  RH  085%=      5-min Rain = 0
KCO2 021044Z 14004KT 19/17 A2997 RMK A01 T01940169  RH  085%=      5-min Rain = 0
KCO2 021045Z 13004KT 19/17 A2997 RMK A01 T01930169  RH  086%=      5-min Rain = 0
KCO2 021046Z 13004KT 19/17 A2997 RMK A01 T01920169  RH  087%=      5-min Rain = 0
KCO2 021047Z 12004KT 19/17 A2997 RMK A01 T01910169  RH  087%=      5-min Rain = 0
KCO2 021048Z 12004KT 19/17 A2997 RMK A01 T01910170  RH  088%=      5-min Rain = 0
KCO2 021049Z 12004KT 19/17 A2997 RMK A01 T01900170  RH  088%=      5-min Rain = 0
KCO2 021050Z 12004KT 19/17 A2997 RMK A01 T01890170  RH  088%=      5-min Rain = 0
KCO2 021051Z 11004KT 19/17 A2997 RMK A01 T01890170  RH  089%=      5-min Rain = 0
KCO2 021052Z 11003KT 19/17 A2997 RMK A01 T01880170  RH  089%=      5-min Rain = 0
KCO2 021053Z 11004KT 19/17 A2997 RMK A01 T01890171  RH  089%=      5-min Rain = 0
KCO2 021054Z 11004KT 19/17 A2997 RMK A01 T01890171  RH  089%=      5-min Rain = 0
KCO2 021055Z 11005KT 19/17 A2997 RMK A01 T01890170  RH  089%=      5-min Rain = 0
KCO2 021056Z 12004KT 19/17 A2997 RMK A01 T01900171  RH  089%=      5-min Rain = 0
KCO2 021057Z 11004KT 19/17 A2997 RMK A01 T01900171  RH  088%=      5-min Rain = 0
KCO2 021058Z 11003KT 19/17 A2997 RMK A01 T01900170  RH  088%=      5-min Rain = 0
KCO2 021059Z 12003KT 19/17 A2997 RMK A01 T01910171  RH  088%=      5-min Rain = 0
KCO2 021100Z 13003KT 19/17 A2997 RMK A01 T01910171  RH  088%=      5-min Rain = 0
KCO2 021101Z 13004KT 19/17 A2997 RMK A01 T01900170  RH  088%=      5-min Rain = 0
KCO2 021102Z 13004KT 19/17 A2997 RMK A01 T01910171  RH  088%=      5-min Rain = 0
KCO2 021103Z 14004KT 19/17 A2997 RMK A01 T01910170  RH  088%=      5-min Rain = 0
KCO2 021104Z 14004KT 19/17 A2997 RMK A01 T01900170  RH  088%=      5-min Rain = 0
KCO2 021105Z 15004KT 19/17 A2997 RMK A01 T01900170  RH  088%=      5-min Rain = 0
KCO2 021106Z 15004KT 19/17 A2997 RMK A01 T01900170  RH  088%=      5-min Rain = 0
KCO2 021107Z 15003KT 19/17 A2997 RMK A01 T01900170  RH  088%=      5-min Rain = 0
KCO2 021108Z 16004KT 19/17 A2997 RMK A01 T01890170  RH  089%=      5-min Rain = 0
KCO2 021109Z 16004KT 19/17 A2997 RMK A01 T01890170  RH  089%=      5-min Rain = 0
KCO2 021110Z 16004KT 19/17 A2997 RMK A01 T01880170  RH  089%=      5-min Rain = 0
KCO2 021111Z 16004KT 19/17 A2997 RMK A01 T01890170  RH  089%=      5-min Rain = 0
KCO2 021112Z 16004KT 19/17 A2997 RMK A01 T01890170  RH  089%=      5-min Rain = 0
KCO2 021113Z 17004KT 19/17 A2997 RMK A01 T01890171  RH  089%=      5-min Rain = 0
KCO2 021114Z 17004KT 19/17 A2997 RMK A01 T01890171  RH  089%=      5-min Rain = 0
KCO2 021115Z 17004KT 19/17 A2997 RMK A01 T01900170  RH  089%=      5-min Rain = 0
KCO2 021116Z 17004KT 19/17 A2997 RMK A01 T01900171  RH  089%=      5-min Rain = 0
KCO2 021117Z 16004KT 19/17 A2998 RMK A01 T01900170  RH  088%=      5-min Rain = 0
KCO2 021118Z 16004KT 19/17 A2998 RMK A01 T01900170  RH  088%=      5-min Rain = 0
KCO2 021119Z 16004KT 19/17 A2998 RMK A01 T01890170  RH  089%=      5-min Rain = 0
KCO2 021120Z 16004KT 19/17 A2998 RMK A01 T01890170  RH  089%=      5-min Rain = 0
KCO2 021121Z 16004KT 19/17 A2998 RMK A01 T01890170  RH  089%=      5-min Rain = 0
KCO2 021122Z 16004KT 19/17 A2998 RMK A01 T01890170  RH  089%=      5-min Rain = 0
KCO2 021123Z 15004KT 19/17 A2998 RMK A01 T01890171  RH  089%=      5-min Rain = 0
KCO2 021124Z 15004KT 19/17 A2998 RMK A01 T01890171  RH  089%=      5-min Rain = 0
KCO2 021125Z 15003KT 19/17 A2998 RMK A01 T01890171  RH  089%=      5-min Rain = 0
KCO2 021126Z 15003KT 19/17 A2998 RMK A01 T01890172  RH  089%=      5-min Rain = 0
KCO2 021127Z 16003KT 19/17 A2998 RMK A01 T01900172  RH  089%=      5-min Rain = 0
KCO2 021128Z 16003KT 19/17 A2998 RMK A01 T01910173  RH  089%=      5-min Rain = 0
KCO2 021129Z 15004KT 19/17 A2998 RMK A01 T01920173  RH  089%=      5-min Rain = 0
KCO2 021130Z 14004KT 19/17 A2998 RMK A01 T01920172  RH  088%=      5-min Rain = 0
KCO2 021131Z 14004KT 19/17 A2998 RMK A01 T01920172  RH  088%=      5-min Rain = 0
KCO2 021132Z 14004KT 19/17 A2998 RMK A01 T01930172  RH  088%=      5-min Rain = 0
KCO2 021133Z 15004KT 19/17 A2998 RMK A01 T01920172  RH  088%=      5-min Rain = 0
KCO2 021134Z 15004KT 19/17 A2998 RMK A01 T01920172  RH  088%=      5-min Rain = 0
KCO2 021135Z 15004KT 19/17 A2998 RMK A01 T01920172  RH  088%=      5-min Rain = 0
KCO2 021136Z 15004KT 19/17 A2998 RMK A01 T01920172  RH  088%=      5-min Rain = 0
KCO2 021137Z 15005KT 19/17 A2998 RMK A01 T01920172  RH  088%=      5-min Rain = 0
KCO2 021138Z 15005KT 19/17 A2998 RMK A01 T01920172  RH  088%=      5-min Rain = 0
KCO2 021139Z 15006KT 19/17 A2998 RMK A01 T01910172  RH  089%=      5-min Rain = 0
KCO2 021140Z 15006KT 19/17 A2998 RMK A01 T01910172  RH  089%=      5-min Rain = 0
KCO2 021141Z 15006KT 19/17 A2998 RMK A01 T01910172  RH  089%=      5-min Rain = 0
KCO2 021142Z 15006KT 19/17 A2998 RMK A01 T01910172  RH  089%=      5-min Rain = 0
KCO2 021143Z 14006KT 19/17 A2998 RMK A01 T01910173  RH  089%=      5-min Rain = 0
KCO2 021144Z 14005KT 19/17 A2998 RMK A01 T01910173  RH  089%=      5-min Rain = 0
KCO2 021145Z 14005KT 19/17 A2998 RMK A01 T01910173  RH  089%=      5-min Rain = 0
KCO2 021146Z 15005KT 19/17 A2998 RMK A01 T01910173  RH  089%=      5-min Rain = 0
KCO2 021147Z 15004KT 19/17 A2998 RMK A01 T01900173  RH  089%=      5-min Rain = 0
KCO2 021148Z 15004KT 19/17 A2998 RMK A01 T01910173  RH  089%=      5-min Rain = 0
KCO2 021149Z 15004KT 19/17 A2998 RMK A01 T01910173  RH  089%=      5-min Rain = 0
KCO2 021150Z 15004KT 19/17 A2998 RMK A01 T01910173  RH  089%=      5-min Rain = 0
KCO2 021151Z 15004KT 19/17 A2998 RMK A01 T01910173  RH  089%=      5-min Rain = 0
KCO2 021152Z 15004KT 19/17 A2998 RMK A01 T01920173  RH  089%=      5-min Rain = 0
KCO2 021153Z 15004KT 19/17 A2998 RMK A01 T01910173  RH  089%=      5-min Rain = 0
KCO2 021154Z 15004KT 19/17 A2998 RMK A01 T01910173  RH  089%=      5-min Rain = 0
KCO2 021155Z 15004KT 19/17 A2999 RMK A01 T01910173  RH  089%=      5-min Rain = 0
KCO2 021156Z 16004KT 19/17 A2999 RMK A01 T01920173  RH  089%=      5-min Rain = 0
KCO2 021157Z 16005KT 19/17 A2999 RMK A01 T01920173  RH  089%=      5-min Rain = 0
KCO2 021158Z 16005KT 19/17 A2999 RMK A01 T01930174  RH  089%=      5-min Rain = 0
KCO2 021159Z 17005KT 19/17 A2999 RMK A01 T01930174  RH  089%=      5-min Rain = 0
KCO2 021200Z 17005KT 19/17 A2999 RMK A01 T01940174  RH  089%=      5-min Rain = 0
KCO2 021201Z 17005KT 19/17 A2999 RMK A01 T01940174  RH  088%=      5-min Rain = 0
KCO2 021202Z 17004KT 20/18 A2999 RMK A01 T01950175  RH  088%=      5-min Rain = 0
KCO2 021203Z 18004KT 20/18 A2999 RMK A01 T01960175  RH  088%=      5-min Rain = 0
KCO2 021204Z 18004KT 20/18 A2999 RMK A01 T01960175  RH  087%=      5-min Rain = 0
KCO2 021205Z 19004KT 20/18 A2999 RMK A01 T01970175  RH  087%=      5-min Rain = 0
KCO2 021206Z 20004KT 20/18 A2999 RMK A01 T01980175  RH  087%=      5-min Rain = 0
KCO2 021207Z 20004KT 20/18 A2999 RMK A01 T01990176  RH  087%=      5-min Rain = 0
KCO2 021208Z 20004KT 20/18 A2999 RMK A01 T01990175  RH  086%=      5-min Rain = 0
KCO2 021209Z 20004KT 20/18 A2999 RMK A01 T02000175  RH  086%=      5-min Rain = 0
KCO2 021210Z 21004KT 20/18 A2999 RMK A01 T02000176  RH  086%=      5-min Rain = 0
KCO2 021211Z 21004KT 20/18 A2999 RMK A01 T02010176  RH  085%=      5-min Rain = 0
KCO2 021212Z 21004KT 20/18 A2999 RMK A01 T02010175  RH  085%=      5-min Rain = 0
KCO2 021213Z 21004KT 20/18 A2999 RMK A01 T02020175  RH  085%=      5-min Rain = 0
KCO2 021214Z 21004KT 20/18 A2999 RMK A01 T02020175  RH  084%=      5-min Rain = 0
KCO2 021215Z 22003KT 20/18 A2999 RMK A01 T02030176  RH  084%=      5-min Rain = 0
KCO2 021216Z 22003KT 20/18 A2999 RMK A01 T02030176  RH  084%=      5-min Rain = 0
KCO2 021217Z 22003KT 20/18 A2999 RMK A01 T02040176  RH  084%=      5-min Rain = 0
KCO2 021218Z 22003KT 20/18 A2999 RMK A01 T02040177  RH  084%=      5-min Rain = 0
KCO2 021219Z 22003KT 21/18 A2999 RMK A01 T02050177  RH  084%=      5-min Rain = 0
KCO2 021220Z 22004KT 21/18 A2999 RMK A01 T02050176  RH  084%=      5-min Rain = 0
KCO2 021221Z 21003KT 21/18 A2999 RMK A01 T02060176  RH  083%=      5-min Rain = 0
KCO2 021222Z 21003KT 21/18 A2999 RMK A01 T02060177  RH  083%=      5-min Rain = 0
KCO2 021223Z 21003KT 21/18 A2999 RMK A01 T02070177  RH  083%=      5-min Rain = 0
KCO2 021224Z 22003KT 21/18 A2999 RMK A01 T02070177  RH  083%=      5-min Rain = 0
KCO2 021225Z 22003KT 21/18 A2999 RMK A01 T02080177  RH  083%=      5-min Rain = 0
KCO2 021226Z 22003KT 21/18 A2999 RMK A01 T02090177  RH  082%=      5-min Rain = 0
KCO2 021227Z 23003KT 21/18 A2999 RMK A01 T02090178  RH  082%=      5-min Rain = 0
KCO2 021228Z 24003KT 21/18 A2999 RMK A01 T02100179  RH  082%=      5-min Rain = 0
KCO2 021229Z 25003KT 21/18 A2999 RMK A01 T02100179  RH  083%=      5-min Rain = 0
KCO2 021230Z 25003KT 21/18 A2999 RMK A01 T02110180  RH  083%=      5-min Rain = 0
KCO2 021231Z 25002KT 21/18 A2999 RMK A01 T02110180  RH  082%=      5-min Rain = 0
KCO2 021232Z 24003KT 21/18 A2999 RMK A01 T02120179  RH  082%=      5-min Rain = 0
KCO2 021233Z 25003KT 21/18 A2999 RMK A01 T02120178  RH  081%=      5-min Rain = 0
KCO2 021234Z 26003KT 21/18 A2999 RMK A01 T02120179  RH  081%=      5-min Rain = 0
KCO2 021235Z 25003KT 21/18 A2999 RMK A01 T02120180  RH  082%=      5-min Rain = 0
KCO2 021236Z 24003KT 21/18 A2999 RMK A01 T02130179  RH  081%=      5-min Rain = 0
KCO2 021237Z 24003KT 21/18 A2999 RMK A01 T02130178  RH  081%=      5-min Rain = 0
KCO2 021238Z 24003KT 21/18 A2999 RMK A01 T02140179  RH  080%=      5-min Rain = 0
KCO2 021239Z 24003KT 22/18 A2999 RMK A01 T02150179  RH  080%=      5-min Rain = 0
KCO2 021240Z 24003KT 22/18 A2999 RMK A01 T02160178  RH  079%=      5-min Rain = 0
KCO2 021241Z 24003KT 22/18 A2999 RMK A01 T02170179  RH  079%=      5-min Rain = 0
KCO2 021242Z 23002KT 22/18 A2999 RMK A01 T02170179  RH  079%=      5-min Rain = 0
KCO2 021243Z 23002KT 22/18 A2999 RMK A01 T02180179  RH  079%=      5-min Rain = 0
KCO2 021244Z 23003KT 22/18 A2999 RMK A01 T02190179  RH  078%=      5-min Rain = 0
KCO2 021245Z 22002KT 22/18 A2999 RMK A01 T02200179  RH  078%=      5-min Rain = 0
KCO2 021246Z 22002KT 22/18 A2999 RMK A01 T02200178  RH  077%=      5-min Rain = 0
KCO2 021247Z 22002KT 22/18 A2999 RMK A01 T02210178  RH  077%=      5-min Rain = 0
KCO2 021248Z 23002KT 22/18 A2999 RMK A01 T02210180  RH  077%=      5-min Rain = 0
KCO2 021249Z 23002KT 22/18 A2999 RMK A01 T02220179  RH  077%=      5-min Rain = 0
KCO2 021250Z 23003KT 22/18 A2999 RMK A01 T02230178  RH  076%=      5-min Rain = 0
KCO2 021251Z 23003KT 22/18 A2999 RMK A01 T02230179  RH  076%=      5-min Rain = 0
KCO2 021252Z 23003KT 22/18 A2999 RMK A01 T02230179  RH  076%=      5-min Rain = 0
KCO2 021253Z 23003KT 22/18 A2999 RMK A01 T02240179  RH  076%=      5-min Rain = 0
KCO2 021254Z 24003KT 22/18 A2999 RMK A01 T02240180  RH  076%=      5-min Rain = 0
KCO2 021255Z 23002KT 23/18 A2999 RMK A01 T02250183  RH  077%=      5-min Rain = 0
KCO2 021256Z 23002KT 23/18 A2999 RMK A01 T02260181  RH  075%=      5-min Rain = 0
KCO2 021257Z 23002KT 23/18 A2999 RMK A01 T02270180  RH  075%=      5-min Rain = 0
KCO2 021258Z 24002KT 23/18 A2999 RMK A01 T02270180  RH  075%=      5-min Rain = 0
KCO2 021259Z 23003KT 23/18 A2999 RMK A01 T02270179  RH  074%=      5-min Rain = 0
KCO2 021300Z 24003KT 23/18 A2999 RMK A01 T02280182  RH  075%=      5-min Rain = 0
KCO2 021301Z 22003KT 23/18 A2999 RMK A01 T02280181  RH  074%=      5-min Rain = 0
KCO2 021302Z 21002KT 23/18 A30 RMK A01 T02280180  RH  074%=      5-min Rain = 0
KCO2 021303Z 21002KT 23/18 A30 RMK A01 T02280180  RH  074%=      5-min Rain = 0
KCO2 021304Z 21002KT 23/18 A30 RMK A01 T02280181  RH  074%=      5-min Rain = 0
KCO2 021305Z 20002KT 23/18 A30 RMK A01 T02290181  RH  074%=      5-min Rain = 0
KCO2 021306Z 20003KT 23/18 A30 RMK A01 T02290181  RH  074%=      5-min Rain = 0
KCO2 021307Z 19003KT 23/18 A2999 RMK A01 T02290181  RH  074%=      5-min Rain = 0
KCO2 021308Z 20003KT 23/18 A2999 RMK A01 T02300181  RH  074%=      5-min Rain = 0
KCO2 021309Z 19003KT 23/18 A30 RMK A01 T02300182  RH  074%=      5-min Rain = 0
KCO2 021310Z 18003KT 23/18 A30 RMK A01 T02310183  RH  074%=      5-min Rain = 0
KCO2 021311Z 20002KT 23/19 A30 RMK A01 T02320185  RH  075%=      5-min Rain = 0
KCO2 021312Z 20003KT 23/18 A30 RMK A01 T02330183  RH  074%=      5-min Rain = 0
KCO2 021313Z 19002KT 23/18 A30 RMK A01 T02330184  RH  074%=      5-min Rain = 0
KCO2 021314Z 20002KT 23/19 A30 RMK A01 T02330185  RH  074%=      5-min Rain = 0
KCO2 021315Z 20003KT 24/19 A30 RMK A01 T02350185  RH  074%=      5-min Rain = 0
KCO2 021316Z 20003KT 24/19 A30 RMK A01 T02350186  RH  074%=      5-min Rain = 0
KCO2 021317Z 18004KT 24/19 A30 RMK A01 T02370186  RH  073%=      5-min Rain = 0
KCO2 021318Z 18004KT 24/19 A30 RMK A01 T02380185  RH  072%=      5-min Rain = 0
KCO2 021319Z 18003KT 24/19 A30 RMK A01 T02380185  RH  072%=      5-min Rain = 0
KCO2 021320Z 17004KT 24/19 A30 RMK A01 T02380186  RH  072%=      5-min Rain = 0
KCO2 021321Z 17004KT 24/19 A30 RMK A01 T02390187  RH  073%=      5-min Rain = 0
KCO2 021322Z 18004KT 24/19 A30 RMK A01 T02400187  RH  072%=      5-min Rain = 0
KCO2 021323Z 19004KT 24/19 A30 RMK A01 T02420187  RH  072%=      5-min Rain = 0
KCO2 021324Z 20003KT 24/19 A30 RMK A01 T02420187  RH  071%=      5-min Rain = 0
KCO2 021325Z 17004KT 24/19 A30 RMK A01 T02420187  RH  071%=      5-min Rain = 0
KCO2 021326Z 17004KT 24/19 A3001 RMK A01 T02430187  RH  071%=      5-min Rain = 0
KCO2 021327Z 18004KT 24/19 A3001 RMK A01 T02430185  RH  070%=      5-min Rain = 0
KCO2 021328Z 19004KT 24/19 A3001 RMK A01 T02430187  RH  071%=      5-min Rain = 0
KCO2 021329Z 20004KT 24/19 A3001 RMK A01 T02430186  RH  070%=      5-min Rain = 0
KCO2 021330Z 20004KT 24/19 A3001 RMK A01 T02430187  RH  071%=      5-min Rain = 0
KCO2 021331Z 19003KT 24/19 A3001 RMK A01 T02430185  RH  070%=      5-min Rain = 0
KCO2 021332Z 20003KT 24/19 A3001 RMK A01 T02430186  RH  070%=      5-min Rain = 0
KCO2 021333Z 22002KT 24/19 A3001 RMK A01 T02440187  RH  070%=      5-min Rain = 0
KCO2 021334Z 18002KT 25/19 A3001 RMK A01 T02460188  RH  070%=      5-min Rain = 0
KCO2 021335Z 18003KT 25/19 A3001 RMK A01 T02470188  RH  070%=      5-min Rain = 0
KCO2 021336Z 18004KT 25/19 A3001 RMK A01 T02490190  RH  070%=      5-min Rain = 0
KCO2 021337Z 18003KT 25/19 A3001 RMK A01 T02500189  RH  069%=      5-min Rain = 0
KCO2 021338Z 19004KT 25/19 A3001 RMK A01 T02500188  RH  069%=      5-min Rain = 0
KCO2 021339Z 21003KT 25/19 A3001 RMK A01 T02500189  RH  069%=      5-min Rain = 0
KCO2 021340Z 22004KT 25/19 A3001 RMK A01 T02510188  RH  068%=      5-min Rain = 0
KCO2 021341Z 22004KT 25/19 A3001 RMK A01 T02510187  RH  068%=      5-min Rain = 0
KCO2 021342Z 20004KT 25/19 A3001 RMK A01 T02510190  RH  069%=      5-min Rain = 0
KCO2 021343Z 19005KT 25/19 A3001 RMK A01 T02520189  RH  068%=      5-min Rain = 0
KCO2 021344Z 19005KT 25/19 A3001 RMK A01 T02520188  RH  068%=      5-min Rain = 0
KCO2 021345Z 20004KT 25/19 A3001 RMK A01 T02530188  RH  067%=      5-min Rain = 0
KCO2 021346Z 20005KT 25/19 A3001 RMK A01 T02530189  RH  068%=      5-min Rain = 0
KCO2 021347Z 20005KT 25/19 A3001 RMK A01 T02530187  RH  067%=      5-min Rain = 0
KCO2 021348Z 21003KT 25/19 A3001 RMK A01 T02540188  RH  067%=      5-min Rain = 0
KCO2 021349Z 20005KT 25/19 A3001 RMK A01 T02540189  RH  067%=      5-min Rain = 0
KCO2 021350Z 20005KT 26/19 A3001 RMK A01 T02560189  RH  067%=      5-min Rain = 0
KCO2 021351Z 20005KT 26/19 A3001 RMK A01 T02560189  RH  067%=      5-min Rain = 0
KCO2 021352Z 20005KT 26/19 A3001 RMK A01 T02560189  RH  066%=      5-min Rain = 0
KCO2 021353Z 20005KT 26/19 A3001 RMK A01 T02570187  RH  065%=      5-min Rain = 0
KCO2 021354Z 21005KT 26/19 A3001 RMK A01 T02570188  RH  066%=      5-min Rain = 0
KCO2 021355Z 21004KT 26/19 A3001 RMK A01 T02570189  RH  066%=      5-min Rain = 0
KCO2 021356Z 21005KT 26/19 A3002 RMK A01 T02570189  RH  066%=      5-min Rain = 0
KCO2 021357Z 22005KT 26/19 A3002 RMK A01 T02570189  RH  066%=      5-min Rain = 0
KCO2 021358Z 22005KT 26/19 A3002 RMK A01 T02570189  RH  066%=      5-min Rain = 0
KCO2 021359Z 23005KT 26/19 A3002 RMK A01 T02570189  RH  066%=      5-min Rain = 0
KCO2 021400Z 23004KT 26/19 A3002 RMK A01 T02580188  RH  065%=      5-min Rain = 0
KCO2 021401Z 21006KT 26/19 A3002 RMK A01 T02580189  RH  066%=      5-min Rain = 0
KCO2 021402Z 22005KT 26/19 A3002 RMK A01 T02580189  RH  066%=      5-min Rain = 0
KCO2 021403Z 23004KT 26/19 A3002 RMK A01 T02590190  RH  066%=      5-min Rain = 0
KCO2 021404Z 23005KT 26/19 A3002 RMK A01 T02600189  RH  065%=      5-min Rain = 0
KCO2 021405Z 21005KT 26/19 A3002 RMK A01 T02590191  RH  066%=      5-min Rain = 0
KCO2 021406Z 21005KT 26/19 A3002 RMK A01 T02600190  RH  065%=      5-min Rain = 0
KCO2 021407Z 22005KT 26/19 A3002 RMK A01 T02600190  RH  065%=      5-min Rain = 0
KCO2 021408Z 22004KT 26/19 A3002 RMK A01 T02600191  RH  066%=      5-min Rain = 0
KCO2 021409Z 20003KT 26/19 A3002 RMK A01 T02610192  RH  066%=      5-min Rain = 0
KCO2 021410Z 20004KT 26/19 A3002 RMK A01 T02620191  RH  065%=      5-min Rain = 0
KCO2 021411Z 21004KT 26/19 A3002 RMK A01 T02630190  RH  064%=      5-min Rain = 0
KCO2 021412Z 23004KT 26/19 A3002 RMK A01 T02630193  RH  066%=      5-min Rain = 0
KCO2 021413Z 22004KT 27/19 A3002 RMK A01 T02650191  RH  064%=      5-min Rain = 0
KCO2 021414Z 23005KT 27/19 A3002 RMK A01 T02650192  RH  064%=      5-min Rain = 0
KCO2 021415Z 20004KT 27/19 A3002 RMK A01 T02650194  RH  065%=      5-min Rain = 0
KCO2 021416Z 20005KT 27/19 A3002 RMK A01 T02660193  RH  064%=      5-min Rain = 0
KCO2 021417Z 20004KT 27/19 A3002 RMK A01 T02670192  RH  063%=      5-min Rain = 0
KCO2 021418Z 19005KT 27/20 A3002 RMK A01 T02670195  RH  064%=      5-min Rain = 0
KCO2 021419Z 20006KT 27/19 A3002 RMK A01 T02690193  RH  063%=      5-min Rain = 0
KCO2 021420Z 21005KT 27/19 A3002 RMK A01 T02680191  RH  063%=      5-min Rain = 0
KCO2 021421Z 21005G10KT 27/19 A3002 RMK A01 T02660193  RH  064%=      5-min Rain = 0
KCO2 021422Z 19008KT 27/19 A3002 RMK A01 T02670193  RH  064%=      5-min Rain = 0
KCO2 021423Z 20008KT 27/19 A3002 RMK A01 T02680193  RH  063%=      5-min Rain = 0
KCO2 021424Z 22006KT 27/19 A3002 RMK A01 T02680192  RH  063%=      5-min Rain = 0
KCO2 021425Z 22005KT 27/19 A3002 RMK A01 T02670193  RH  064%=      5-min Rain = 0
KCO2 021426Z 21005KT 27/19 A3002 RMK A01 T02680194  RH  064%=      5-min Rain = 0
KCO2 021427Z 21005KT 27/20 A3002 RMK A01 T02690195  RH  064%=      5-min Rain = 0
KCO2 021428Z 23006KT 27/19 A3003 RMK A01 T02710193  RH  062%=      5-min Rain = 0
KCO2 021429Z 21005KT 27/19 A3003 RMK A01 T02710193  RH  062%=      5-min Rain = 0
KCO2 021430Z 20004KT 27/19 A3003 RMK A01 T02700194  RH  063%=      5-min Rain = 0
KCO2 021431Z 20007KT 27/20 A3002 RMK A01 T02710195  RH  063%=      5-min Rain = 0
KCO2 021432Z 22006KT 27/19 A3002 RMK A01 T02710191  RH  061%=      5-min Rain = 0
KCO2 021433Z 22006KT 27/19 A3003 RMK A01 T02690192  RH  063%=      5-min Rain = 0
KCO2 021434Z 21007KT 27/19 A3003 RMK A01 T02690192  RH  063%=      5-min Rain = 0
KCO2 021435Z 20007KT 27/19 A3002 RMK A01 T02690193  RH  063%=      5-min Rain = 0
KCO2 021436Z 20010KT 27/19 A3002 RMK A01 T02700192  RH  062%=      5-min Rain = 0
KCO2 021437Z 20007KT 27/19 A3003 RMK A01 T02700190  RH  062%=      5-min Rain = 0
KCO2 021438Z 22008KT 27/19 A3003 RMK A01 T02690191  RH  062%=      5-min Rain = 0
KCO2 021439Z 22006KT 27/19 A3003 RMK A01 T02680192  RH  063%=      5-min Rain = 0
KCO2 021440Z 21008KT 27/19 A3002 RMK A01 T02680192  RH  063%=      5-min Rain = 0
KCO2 021441Z 20008KT 27/19 A3002 RMK A01 T02680191  RH  063%=      5-min Rain = 0
KCO2 021442Z 21008KT 27/19 A3002 RMK A01 T02680192  RH  063%=      5-min Rain = 0
KCO2 021443Z 20007KT 27/19 A3002 RMK A01 T02690192  RH  063%=      5-min Rain = 0
KCO2 021444Z 20008KT 27/19 A3002 RMK A01 T02710194  RH  063%=      5-min Rain = 0
KCO2 021445Z 21006KT 27/20 A3002 RMK A01 T02740195  RH  062%=      5-min Rain = 0
KCO2 021446Z 22006KT 28/19 A3002 RMK A01 T02760194  RH  061%=      5-min Rain = 0
KCO2 021447Z 21008KT 28/19 A3002 RMK A01 T02770193  RH  060%=      5-min Rain = 0
KCO2 021448Z 21008KT 28/19 A3002 RMK A01 T02760194  RH  061%=      5-min Rain = 0
KCO2 021449Z 21009KT 28/19 A3002 RMK A01 T02760193  RH  061%=      5-min Rain = 0
KCO2 021450Z 23007KT 28/19 A3002 RMK A01 T02760194  RH  061%=      5-min Rain = 0
KCO2 021451Z 23009KT 28/19 A3002 RMK A01 T02770193  RH  060%=      5-min Rain = 0
KCO2 021452Z 23009KT 28/19 A3002 RMK A01 T02770192  RH  060%=      5-min Rain = 0
KCO2 021453Z 21006KT 28/20 A3002 RMK A01 T02770195  RH  061%=      5-min Rain = 0
KCO2 021454Z 22005KT 28/20 A3002 RMK A01 T02790197  RH  061%=      5-min Rain = 0
KCO2 021455Z 22007KT 28/20 A3002 RMK A01 T02820198  RH  060%=      5-min Rain = 0
KCO2 021456Z 24009KT 28/20 A3002 RMK A01 T02840196  RH  059%=      5-min Rain = 0
KCO2 021457Z 22008KT 28/19 A3002 RMK A01 T02830194  RH  059%=      5-min Rain = 0
KCO2 021458Z 21009KT 28/20 A3002 RMK A01 T02820195  RH  059%=      5-min Rain = 0
KCO2 021459Z 21007KT 28/20 A3002 RMK A01 T02800195  RH  060%=      5-min Rain = 0
KCO2 021500Z 21006KT 28/20 A3002 RMK A01 T02800195  RH  060%=      5-min Rain = 0
KCO2 021501Z 20005KT 28/20 A3002 RMK A01 T02800196  RH  060%=      5-min Rain = 0
KCO2 021502Z 20007KT 28/20 A3002 RMK A01 T02820198  RH  061%=      5-min Rain = 0
KCO2 021503Z 20008KT 28/20 A3002 RMK A01 T02820195  RH  059%=      5-min Rain = 0
KCO2 021504Z 19008KT 28/20 A3002 RMK A01 T02810199  RH  061%=      5-min Rain = 0
KCO2 021505Z 21008KT 28/20 A3002 RMK A01 T02820196  RH  060%=      5-min Rain = 0
KCO2 021506Z 20007KT 28/20 A3002 RMK A01 T02810197  RH  060%=      5-min Rain = 0
KCO2 021507Z 21007KT 28/20 A3002 RMK A01 T02820199  RH  061%=      5-min Rain = 0
KCO2 021508Z 20007KT 29/20 A3002 RMK A01 T02850199  RH  059%=      5-min Rain = 0
KCO2 021509Z 21006KT 29/20 A3002 RMK A01 T02850198  RH  059%=      5-min Rain = 0
KCO2 021510Z 21009KT 29/20 A3002 RMK A01 T02850199  RH  060%=      5-min Rain = 0
KCO2 021511Z 21009KT 29/20 A3002 RMK A01 T02850198  RH  059%=      5-min Rain = 0
KCO2 021512Z 21008KT 29/20 A3002 RMK A01 T02850199  RH  060%=      5-min Rain = 0
KCO2 021513Z 21011KT 29/20 A3002 RMK A01 T02850199  RH  059%=      5-min Rain = 0
KCO2 021514Z 21011KT 29/20 A3002 RMK A01 T02860200  RH  059%=      5-min Rain = 0
KCO2 021515Z 20010KT 29/20 A3002 RMK A01 T02870201  RH  060%=      5-min Rain = 0
KCO2 021516Z 20011KT 29/20 A3002 RMK A01 T02890201  RH  059%=      5-min Rain = 0
KCO2 021517Z 19014KT 29/20 A3002 RMK A01 T02890201  RH  059%=      5-min Rain = 0
KCO2 021518Z 20010KT 29/20 A3002 RMK A01 T02890201  RH  059%=      5-min Rain = 0
KCO2 021519Z 20011KT 29/20 A3002 RMK A01 T02890201  RH  059%=      5-min Rain = 0
KCO2 021520Z 20009KT 29/20 A3002 RMK A01 T02890202  RH  059%=      5-min Rain = 0
KCO2 021521Z 19012KT 29/20 A3002 RMK A01 T02920203  RH  059%=      5-min Rain = 0
KCO2 021522Z 19012KT 29/20 A3002 RMK A01 T02920202  RH  058%=      5-min Rain = 0
KCO2 021523Z 20011KT 29/20 A3002 RMK A01 T02920203  RH  059%=      5-min Rain = 0
KCO2 021524Z 19012KT 29/20 A3002 RMK A01 T02910203  RH  059%=      5-min Rain = 0
KCO2 021525Z 20011KT 29/20 A3002 RMK A01 T02900202  RH  059%=      5-min Rain = 0
KCO2 021526Z 22012KT 29/20 A3002 RMK A01 T02910201  RH  058%=      5-min Rain = 0
KCO2 021527Z 20012KT 29/20 A3002 RMK A01 T02920201  RH  058%=      5-min Rain = 0
KCO2 021528Z 19012KT 29/20 A3002 RMK A01 T02920203  RH  059%=      5-min Rain = 0
KCO2 021529Z 19011KT 29/20 A3002 RMK A01 T02940203  RH  058%=      5-min Rain = 0
KCO2 021530Z 19010KT 30/20 A3002 RMK A01 T02950204  RH  058%=      5-min Rain = 0
KCO2 021531Z 19010KT 30/20 A3002 RMK A01 T02970204  RH  057%=      5-min Rain = 0
KCO2 021532Z 20011KT 30/21 A3002 RMK A01 T02980205  RH  057%=      5-min Rain = 0
KCO2 021533Z 20011KT 30/20 A3002 RMK A01 T02990203  RH  056%=      5-min Rain = 0
KCO2 021534Z 20012KT 30/20 A3002 RMK A01 T02980202  RH  056%=      5-min Rain = 0
KCO2 021535Z 19014KT 30/20 A3002 RMK A01 T02960202  RH  057%=      5-min Rain = 0
KCO2 021536Z 20011KT 30/20 A3002 RMK A01 T02950202  RH  057%=      5-min Rain = 0
KCO2 021537Z 19012KT 29/20 A3002 RMK A01 T02940201  RH  057%=      5-min Rain = 0
KCO2 021538Z 19011KT 29/20 A3002 RMK A01 T02920199  RH  057%=      5-min Rain = 0
KCO2 021539Z 19009KT 29/20 A3002 RMK A01 T02910200  RH  058%=      5-min Rain = 0
KCO2 021540Z 18010KT 29/20 A3002 RMK A01 T02910201  RH  058%=      5-min Rain = 0
KCO2 021541Z 20010KT 29/20 A3002 RMK A01 T02920201  RH  058%=      5-min Rain = 0
KCO2 021542Z 19009KT 29/20 A3002 RMK A01 T02920202  RH  058%=      5-min Rain = 0
KCO2 021543Z 20010KT 29/20 A3002 RMK A01 T02930202  RH  058%=      5-min Rain = 0
KCO2 021544Z 20012KT 29/20 A3002 RMK A01 T02940199  RH  057%=      5-min Rain = 0
KCO2 021545Z 20011KT 29/20 A3002 RMK A01 T02920200  RH  058%=      5-min Rain = 0
KCO2 021546Z 20010KT 29/20 A3002 RMK A01 T02910199  RH  058%=      5-min Rain = 0
KCO2 021547Z 21009KT 29/20 A3002 RMK A01 T02920200  RH  058%=      5-min Rain = 0
KCO2 021548Z 20009KT 29/20 A3002 RMK A01 T02920202  RH  058%=      5-min Rain = 0
KCO2 021549Z 20011KT 29/20 A3002 RMK A01 T02940199  RH  057%=      5-min Rain = 0
KCO2 021550Z 20009KT 29/20 A3002 RMK A01 T02940201  RH  057%=      5-min Rain = 0
KCO2 021551Z 22009KT 30/20 A3002 RMK A01 T02960202  RH  057%=      5-min Rain = 0
KCO2 021552Z 21008KT 30/20 A3002 RMK A01 T02970203  RH  057%=      5-min Rain = 0
KCO2 021553Z 21007KT 30/20 A3002 RMK A01 T03000201  RH  056%=      5-min Rain = 0
KCO2 021554Z 19005KT 30/20 A3002 RMK A01 T02990204  RH  057%=      5-min Rain = 0
KCO2 021555Z 20007KT 30/21 A3002 RMK A01 T03010206  RH  057%=      5-min Rain = 0
KCO2 021556Z 21008KT 30/20 A3002 RMK A01 T03030204  RH  056%=      5-min Rain = 0
KCO2 021557Z 20010KT 30/21 A3002 RMK A01 T03030205  RH  056%=      5-min Rain = 0
KCO2 021558Z 20010KT 30/21 A3002 RMK A01 T03020206  RH  056%=      5-min Rain = 0
KCO2 021559Z 18010KT 30/21 A3002 RMK A01 T03020205  RH  056%=      5-min Rain = 0
KCO2 021600Z 16010KT 30/20 A3002 RMK A01 T03010204  RH  056%=      5-min Rain = 0
KCO2 021601Z 18014KT 30/21 A3002 RMK A01 T03010205  RH  057%=      5-min Rain = 0
KCO2 021602Z 19011KT 30/21 A3002 RMK A01 T03030207  RH  057%=      5-min Rain = 0
KCO2 021603Z 20008KT 31/21 A3002 RMK A01 T03050205  RH  055%=      5-min Rain = 0
KCO2 021604Z 19009KT 31/21 A3002 RMK A01 T03050206  RH  056%=      5-min Rain = 0
KCO2 021605Z 20009KT 31/21 A3002 RMK A01 T03050205  RH  055%=      5-min Rain = 0
KCO2 021606Z 18011KT 31/21 A3002 RMK A01 T03050205  RH  055%=      5-min Rain = 0
KCO2 021607Z 18011KT 31/20 A3002 RMK A01 T03050204  RH  055%=      5-min Rain = 0
KCO2 021608Z 18013KT 30/20 A3002 RMK A01 T03040203  RH  055%=      5-min Rain = 0
KCO2 021609Z 18010KT 30/20 A3002 RMK A01 T03020203  RH  055%=      5-min Rain = 0
KCO2 021610Z 18010KT 30/21 A3002 RMK A01 T03040206  RH  056%=      5-min Rain = 0
KCO2 021611Z 20009KT 31/21 A3002 RMK A01 T03090207  RH  054%=      5-min Rain = 0
KCO2 021612Z 17011KT 31/21 A3002 RMK A01 T03130205  RH  053%=      5-min Rain = 0
KCO2 021613Z 17010KT 31/21 A3002 RMK A01 T03130205  RH  053%=      5-min Rain = 0
KCO2 021614Z 17011KT 31/20 A3002 RMK A01 T03100203  RH  053%=      5-min Rain = 0
KCO2 021615Z 17010KT 31/20 A3002 RMK A01 T03050202  RH  054%=      5-min Rain = 0
KCO2 021616Z 18010G16KT 30/20 A3002 RMK A01 T03020202  RH  055%=      5-min Rain = 0
KCO2 021617Z 20009KT 30/20 A3002 RMK A01 T03020203  RH  056%=      5-min Rain = 0
KCO2 021618Z 18011KT 30/20 A3002 RMK A01 T03040203  RH  055%=      5-min Rain = 0
KCO2 021619Z 18011KT 31/20 A3002 RMK A01 T03060201  RH  054%=      5-min Rain = 0
KCO2 021620Z 20009KT 31/20 A3002 RMK A01 T03060202  RH  054%=      5-min Rain = 0
KCO2 021621Z 20008KT 31/20 A3002 RMK A01 T03060201  RH  053%=      5-min Rain = 0
KCO2 021622Z 19009KT 31/20 A3002 RMK A01 T03080203  RH  054%=      5-min Rain = 0
KCO2 021623Z 18010KT 31/20 A3002 RMK A01 T03110202  RH  052%=      5-min Rain = 0
KCO2 021624Z 18010KT 31/20 A3002 RMK A01 T03100202  RH  053%=      5-min Rain = 0
KCO2 021625Z 17012KT 31/20 A3002 RMK A01 T03090200  RH  052%=      5-min Rain = 0
KCO2 021626Z 18011KT 31/20 A3002 RMK A01 T03090201  RH  052%=      5-min Rain = 0
KCO2 021627Z 19010KT 31/20 A3002 RMK A01 T03090200  RH  052%=      5-min Rain = 0
KCO2 021628Z 19008KT 31/20 A3002 RMK A01 T03090202  RH  053%=      5-min Rain = 0
KCO2 021629Z 16009KT 31/20 A3002 RMK A01 T03090200  RH  052%=      5-min Rain = 0
KCO2 021630Z 17012KT 31/20 A3002 RMK A01 T03080201  RH  053%=      5-min Rain = 0
KCO2 021631Z 19010KT 31/20 A3002 RMK A01 T03100200  RH  052%=      5-min Rain = 0
KCO2 021632Z 20007KT 31/20 A3003 RMK A01 T03110200  RH  052%=      5-min Rain = 0
KCO2 021633Z 22006KT 31/20 A3003 RMK A01 T03110200  RH  052%=      5-min Rain = 0
KCO2 021634Z 19008KT 31/20 A3002 RMK A01 T03110201  RH  052%=      5-min Rain = 0
KCO2 021635Z 18012KT 31/20 A3002 RMK A01 T03110200  RH  051%=      5-min Rain = 0
KCO2 021636Z 18009KT 31/20 A3002 RMK A01 T03120199  RH  051%=      5-min Rain = 0
KCO2 021637Z 16007KT 31/20 A3002 RMK A01 T03110199  RH  051%=      5-min Rain = 0
KCO2 021638Z 17008KT 31/20 A3002 RMK A01 T03100200  RH  052%=      5-min Rain = 0
KCO2 021639Z 19006KT 31/20 A3002 RMK A01 T03090201  RH  053%=      5-min Rain = 0
KCO2 021640Z 18005KT 31/20 A3002 RMK A01 T03090200  RH  052%=      5-min Rain = 0
KCO2 021641Z 18005KT 31/20 A3002 RMK A01 T03090201  RH  053%=      5-min Rain = 0
KCO2 021642Z 22006KT 31/21 A3002 RMK A01 T03120205  RH  053%=      5-min Rain = 0
KCO2 021643Z 19007KT 32/20 A3002 RMK A01 T03150202  RH  051%=      5-min Rain = 0
KCO2 021644Z 18008KT 32/20 A3002 RMK A01 T03160201  RH  051%=      5-min Rain = 0
KCO2 021645Z 18009KT 32/20 A3002 RMK A01 T03160199  RH  050%=      5-min Rain = 0
KCO2 021646Z 19012KT 32/20 A3002 RMK A01 T03180201  RH  050%=      5-min Rain = 0
KCO2 021647Z 19010KT 32/20 A3002 RMK A01 T03180198  RH  049%=      5-min Rain = 0
KCO2 021648Z 18010KT 32/20 A3002 RMK A01 T03150198  RH  050%=      5-min Rain = 0
KCO2 021649Z 17009KT 32/20 A3002 RMK A01 T03150198  RH  050%=      5-min Rain = 0
KCO2 021650Z 18012KT 32/20 A3002 RMK A01 T03180201  RH  050%=      5-min Rain = 0
KCO2 021651Z 18012KT 32/20 A3002 RMK A01 T03210199  RH  049%=      5-min Rain = 0
KCO2 021652Z 18012KT 32/20 A3002 RMK A01 T03200196  RH  048%=      5-min Rain = 0
KCO2 021653Z 19011KT 32/20 A3002 RMK A01 T03170195  RH  049%=      5-min Rain = 0
KCO2 021654Z 18011KT 32/20 A3002 RMK A01 T03150197  RH  050%=      5-min Rain = 0
KCO2 021655Z 18008KT 32/20 A3002 RMK A01 T03150197  RH  050%=      5-min Rain = 0
KCO2 021656Z 18012KT 32/20 A3002 RMK A01 T03170199  RH  050%=      5-min Rain = 0
KCO2 021657Z 19009KT 32/20 A3002 RMK A01 T03180198  RH  049%=      5-min Rain = 0
KCO2 021658Z 19011KT 32/20 A3002 RMK A01 T03170199  RH  050%=      5-min Rain = 0
KCO2 021659Z 18007KT 32/20 A3002 RMK A01 T03150197  RH  050%=      5-min Rain = 0
KCO2 021700Z 18007KT 31/20 A3002 RMK A01 T03130199  RH  051%=      5-min Rain = 0
KCO2 021701Z 18007KT 31/20 A3002 RMK A01 T03130198  RH  051%=      5-min Rain = 0
KCO2 021702Z 17008KT 31/20 A3002 RMK A01 T03130197  RH  050%=      5-min Rain = 0
KCO2 021703Z 20008KT 32/20 A3002 RMK A01 T03180201  RH  050%=      5-min Rain = 0
KCO2 021704Z 17010KT 32/20 A3002 RMK A01 T03230202  RH  049%=      5-min Rain = 0
KCO2 021705Z 18010G15KT 32/20 A3002 RMK A01 T03240201  RH  048%=      5-min Rain = 0
KCO2 021706Z 18009KT 32/20 A3002 RMK A01 T03230200  RH  048%=      5-min Rain = 0
KCO2 021707Z 17011KT 32/20 A3002 RMK A01 T03210198  RH  048%=      5-min Rain = 0
KCO2 021708Z 16011KT 32/20 A3002 RMK A01 T03190197  RH  048%=      5-min Rain = 0
KCO2 021709Z 16008KT 32/20 A3002 RMK A01 T03190199  RH  049%=      5-min Rain = 0
KCO2 021710Z 17008KT 32/20 A3002 RMK A01 T03180198  RH  049%=      5-min Rain = 0
KCO2 021711Z 18011KT 32/20 A3002 RMK A01 T03170199  RH  049%=      5-min Rain = 0
KCO2 021712Z 17009KT 32/20 A3002 RMK A01 T03150197  RH  050%=      5-min Rain = 0
KCO2 021713Z 17010KT 31/20 A3002 RMK A01 T03120197  RH  050%=      5-min Rain = 0
KCO2 021714Z 17011KT 31/20 A3002 RMK A01 T03100197  RH  051%=      5-min Rain = 0
KCO2 021715Z 18009KT 31/20 A3002 RMK A01 T03090197  RH  051%=      5-min Rain = 0
KCO2 021716Z 19010KT 31/20 A3002 RMK A01 T03070198  RH  052%=      5-min Rain = 0
KCO2 021717Z 18009KT 31/20 A3002 RMK A01 T03070198  RH  052%=      5-min Rain = 0
KCO2 021718Z 17007KT 31/20 A3002 RMK A01 T03060198  RH  052%=      5-min Rain = 0
KCO2 021719Z 18007KT 31/20 A3002 RMK A01 T03060199  RH  053%=      5-min Rain = 0
KCO2 021720Z 16008KT 31/20 A3002 RMK A01 T03060200  RH  053%=      5-min Rain = 0
KCO2 021721Z 17009KT 31/20 A3002 RMK A01 T03080196  RH  051%=      5-min Rain = 0
KCO2 021722Z 19010KT 31/20 A3002 RMK A01 T03080195  RH  051%=      5-min Rain = 0
KCO2 021723Z 18007KT 31/20 A3002 RMK A01 T03090196  RH  051%=      5-min Rain = 0
KCO2 021724Z 19010KT 31/20 A3002 RMK A01 T03100195  RH  050%=      5-min Rain = 0
KCO2 021725Z 18009KT 31/19 A3002 RMK A01 T03110194  RH  050%=      5-min Rain = 0
KCO2 021726Z 19011KT 31/19 A3002 RMK A01 T03120193  RH  049%=      5-min Rain = 0
KCO2 021727Z 20012KT 31/19 A3001 RMK A01 T03120191  RH  048%=      5-min Rain = 0
KCO2 021728Z 20011KT 31/19 A3001 RMK A01 T03120190  RH  048%=      5-min Rain = 0
KCO2 021729Z 19013KT 32/19 A3001 RMK A01 T03150192  RH  048%=      5-min Rain = 0
KCO2 021730Z 18011KT 32/19 A3001 RMK A01 T03190192  RH  047%=      5-min Rain = 0
KCO2 021731Z 18011KT 32/19 A3001 RMK A01 T03230190  RH  046%=      5-min Rain = 0
KCO2 021732Z 19011KT 32/19 A3001 RMK A01 T03230189  RH  045%=      5-min Rain = 0
KCO2 021733Z 17011KT 32/19 A3001 RMK A01 T03230193  RH  046%=      5-min Rain = 0
KCO2 021734Z 16011KT 33/19 A3001 RMK A01 T03260192  RH  045%=      5-min Rain = 0
KCO2 021735Z 17012KT 33/19 A3001 RMK A01 T03270192  RH  045%=      5-min Rain = 0
KCO2 021736Z 18011KT 33/19 A3001 RMK A01 T03270191  RH  045%=      5-min Rain = 0
KCO2 021737Z 19015KT 33/19 A3001 RMK A01 T03290192  RH  045%=      5-min Rain = 0
KCO2 021738Z 18011KT 33/19 A3001 RMK A01 T03300191  RH  044%=      5-min Rain = 0
KCO2 021739Z 18012KT 33/19 A3001 RMK A01 T03320192  RH  044%=      5-min Rain = 0
KCO2 021740Z 18009KT 33/19 A3001 RMK A01 T03320190  RH  043%=      5-min Rain = 0
KCO2 021741Z 17008KT 33/19 A3001 RMK A01 T03300190  RH  044%=      5-min Rain = 0
KCO2 021742Z 20009KT 33/19 A3001 RMK A01 T03300193  RH  045%=      5-min Rain = 0
KCO2 021743Z 20009KT 33/19 A3001 RMK A01 T03310193  RH  044%=      5-min Rain = 0
KCO2 021744Z 18010KT 33/19 A3001 RMK A01 T03340194  RH  044%=      5-min Rain = 0
KCO2 021745Z 19009KT 34/20 A3001 RMK A01 T03360195  RH  043%=      5-min Rain = 0
KCO2 021746Z 17012KT 34/19 A3001 RMK A01 T03390192  RH  042%=      5-min Rain = 0
KCO2 021747Z 17011KT 34/19 A3001 RMK A01 T03400190  RH  041%=      5-min Rain = 0
KCO2 021748Z 18009KT 34/19 A3001 RMK A01 T03390190  RH  042%=      5-min Rain = 0
KCO2 021749Z 19014KT 34/19 A3001 RMK A01 T03380193  RH  042%=      5-min Rain = 0
KCO2 021750Z 19010KT 34/19 A3001 RMK A01 T03380190  RH  042%=      5-min Rain = 0
KCO2 021751Z 19011KT 34/19 A3001 RMK A01 T03350191  RH  043%=      5-min Rain = 0
KCO2 021752Z 20007KT 34/19 A3001 RMK A01 T03350190  RH  043%=      5-min Rain = 0
KCO2 021753Z 21007KT 33/19 A3001 RMK A01 T03340192  RH  043%=      5-min Rain = 0
KCO2 021754Z 20007KT 34/19 A3001 RMK A01 T03360194  RH  043%=      5-min Rain = 0
KCO2 021755Z 17009KT 34/19 A3001 RMK A01 T03370193  RH  043%=      5-min Rain = 0
KCO2 021756Z 17011KT 34/19 A3001 RMK A01 T03370192  RH  042%=      5-min Rain = 0
KCO2 021757Z 16010KT 34/19 A3001 RMK A01 T03370193  RH  043%=      5-min Rain = 0
KCO2 021758Z 18009KT 34/19 A3001 RMK A01 T03380194  RH  043%=      5-min Rain = 0
KCO2 021759Z 20010KT 34/19 A3001 RMK A01 T03390193  RH  042%=      5-min Rain = 0
KCO2 021800Z 20013KT 34/19 A3001 RMK A01 T03380191  RH  042%=      5-min Rain = 0
KCO2 021801Z 19009KT 34/19 A3001 RMK A01 T03350190  RH  042%=      5-min Rain = 0
KCO2 021802Z 19009G14KT 33/19 A3001 RMK A01 T03330191  RH  043%=      5-min Rain = 0
KCO2 021803Z 20011KT 33/19 A3001 RMK A01 T03340190  RH  043%=      5-min Rain = 0
KCO2 021804Z 20010KT 34/19 A3001 RMK A01 T03350191  RH  043%=      5-min Rain = 0
KCO2 021805Z 19009KT 34/19 A3001 RMK A01 T03370193  RH  043%=      5-min Rain = 0
KCO2 021806Z 17009KT 34/19 A30 RMK A01 T03400194  RH  042%=      5-min Rain = 0
KCO2 021807Z 15011KT 34/20 A30 RMK A01 T03410196  RH  043%=      5-min Rain = 0
KCO2 021808Z 16012KT 34/20 A30 RMK A01 T03400196  RH  043%=      5-min Rain = 0
KCO2 021809Z 17012KT 34/20 A3001 RMK A01 T03400195  RH  042%=      5-min Rain = 0
KCO2 021810Z 18012KT 34/19 A3001 RMK A01 T03420192  RH  041%=      5-min Rain = 0
KCO2 021811Z 17010KT 34/19 A3001 RMK A01 T03410192  RH  042%=      5-min Rain = 0
KCO2 021812Z 16010KT 34/19 A30 RMK A01 T03400192  RH  042%=      5-min Rain = 0
KCO2 021813Z 16008KT 34/19 A30 RMK A01 T03410194  RH  042%=      5-min Rain = 0
KCO2 021814Z 16007KT 34/19 A30 RMK A01 T03440194  RH  041%=      5-min Rain = 0
KCO2 021815Z 16008KT 35/20 A30 RMK A01 T03470196  RH  041%=      5-min Rain = 0
KCO2 021816Z 18008KT 35/20 A30 RMK A01 T03490197  RH  041%=      5-min Rain = 0
KCO2 021817Z 19011KT 35/19 A30 RMK A01 T03500193  RH  040%=      5-min Rain = 0
KCO2 021818Z 20006KT 35/19 A30 RMK A01 T03470193  RH  040%=      5-min Rain = 0
KCO2 021819Z 18009KT 34/19 A30 RMK A01 T03440192  RH  041%=      5-min Rain = 0
KCO2 021820Z 18006KT 34/19 A30 RMK A01 T03410192  RH  042%=      5-min Rain = 0
KCO2 021821Z 18009KT 34/19 A30 RMK A01 T03400192  RH  042%=      5-min Rain = 0
KCO2 021822Z 18010KT 34/20 A30 RMK A01 T03430195  RH  042%=      5-min Rain = 0
KCO2 021823Z 18007KT 35/19 A30 RMK A01 T03460193  RH  041%=      5-min Rain = 0
KCO2 021824Z 18006KT 34/19 A30 RMK A01 T03440194  RH  041%=      5-min Rain = 0
KCO2 021825Z 16009KT 34/19 A30 RMK A01 T03440193  RH  041%=      5-min Rain = 0
KCO2 021826Z 15012KT 34/19 A30 RMK A01 T03440193  RH  041%=      5-min Rain = 0
KCO2 021827Z 16011KT 35/19 A30 RMK A01 T03450192  RH  041%=      5-min Rain = 0
KCO2 021828Z 17009KT 34/19 A30 RMK A01 T03440193  RH  041%=      5-min Rain = 0
KCO2 021829Z 18009KT 34/19 A30 RMK A01 T03440194  RH  041%=      5-min Rain = 0
KCO2 021830Z 17007KT 34/19 A30 RMK A01 T03440193  RH  041%=      5-min Rain = 0
KCO2 021831Z 17009KT 34/19 A30 RMK A01 T03440192  RH  041%=      5-min Rain = 0
KCO2 021832Z 14013KT 34/19 A30 RMK A01 T03440192  RH  041%=      5-min Rain = 0
KCO2 021833Z 14012G17KT 35/19 A30 RMK A01 T03450192  RH  040%=      5-min Rain = 0
KCO2 021834Z 15011G17KT 35/19 A30 RMK A01 T03450192  RH  041%=      5-min Rain = 0
KCO2 021835Z 15012KT 35/19 A30 RMK A01 T03460193  RH  041%=      5-min Rain = 0
KCO2 021836Z 15012KT 35/19 A30 RMK A01 T03490194  RH  040%=      5-min Rain = 0
KCO2 021837Z 17011KT 35/19 A30 RMK A01 T03490191  RH  039%=      5-min Rain = 0
KCO2 021838Z 16010KT 35/19 A30 RMK A01 T03470192  RH  040%=      5-min Rain = 0
KCO2 021839Z 17010KT 35/19 A30 RMK A01 T03480193  RH  040%=      5-min Rain = 0
KCO2 021840Z 17008KT 35/19 A30 RMK A01 T03490192  RH  040%=      5-min Rain = 0
KCO2 021841Z 18006KT 35/19 A2999 RMK A01 T03490194  RH  040%=      5-min Rain = 0
KCO2 021842Z 18006KT 35/19 A2999 RMK A01 T03480192  RH  040%=      5-min Rain = 0
KCO2 021843Z 19005KT 35/19 A2999 RMK A01 T03450191  RH  040%=      5-min Rain = 0
KCO2 021844Z 21007KT 35/19 A2999 RMK A01 T03460194  RH  041%=      5-min Rain = 0
KCO2 021845Z 21004KT 35/19 A2999 RMK A01 T03480193  RH  040%=      5-min Rain = 0
KCO2 021846Z 18007KT 35/20 A2999 RMK A01 T03500195  RH  040%=      5-min Rain = 0
KCO2 021847Z 15009KT 35/20 A2999 RMK A01 T03520195  RH  040%=      5-min Rain = 0
KCO2 021848Z 15015KT 35/19 A2999 RMK A01 T03540192  RH  039%=      5-min Rain = 0
KCO2 021849Z 16012KT 35/19 A2999 RMK A01 T03530189  RH  038%=      5-min Rain = 0
KCO2 021850Z 15011KT 35/19 A2999 RMK A01 T03510188  RH  038%=      5-min Rain = 0
KCO2 021851Z 16009G16KT 35/19 A2999 RMK A01 T03500190  RH  039%=      5-min Rain = 0
KCO2 021852Z 14014KT 35/19 A2999 RMK A01 T03510190  RH  039%=      5-min Rain = 0
KCO2 021853Z 16010KT 35/19 A2999 RMK A01 T03520189  RH  038%=      5-min Rain = 0
KCO2 021854Z 15010KT 35/19 A2999 RMK A01 T03520191  RH  039%=      5-min Rain = 0
KCO2 021855Z 14010KT 35/19 A2999 RMK A01 T03530188  RH  038%=      5-min Rain = 0
KCO2 021856Z 13006KT 35/19 A2999 RMK A01 T03500188  RH  038%=      5-min Rain = 0
KCO2 021857Z 15008KT 35/19 A2999 RMK A01 T03490192  RH  040%=      5-min Rain = 0
KCO2 021858Z 15008KT 35/19 A2999 RMK A01 T03530194  RH  039%=      5-min Rain = 0
KCO2 021859Z 15008KT 36/19 A2999 RMK A01 T03560191  RH  038%=      5-min Rain = 0
KCO2 021900Z 16007KT 36/19 A2999 RMK A01 T03550192  RH  038%=      5-min Rain = 0
KCO2 021901Z 15012KT 36/19 A2998 RMK A01 T03560193  RH  039%=      5-min Rain = 0
KCO2 021902Z 14011KT 36/19 A2998 RMK A01 T03580190  RH  037%=      5-min Rain = 0
KCO2 021903Z 14009KT 36/19 A2998 RMK A01 T03570192  RH  038%=      5-min Rain = 0
KCO2 021904Z 15010KT 36/19 A2998 RMK A01 T03570191  RH  038%=      5-min Rain = 0
KCO2 021905Z 17008KT 36/19 A2998 RMK A01 T03570191  RH  038%=      5-min Rain = 0
KCO2 021906Z 18009KT 36/19 A2998 RMK A01 T03560192  RH  038%=      5-min Rain = 0
KCO2 021907Z 15009KT 36/19 A2998 RMK A01 T03550193  RH  039%=      5-min Rain = 0
KCO2 021908Z 15011KT 36/20 A2998 RMK A01 T03550196  RH  039%=      5-min Rain = 0
KCO2 021909Z 14010KT 36/20 A2998 RMK A01 T03550196  RH  039%=      5-min Rain = 0
KCO2 021910Z 15009KT 35/20 A2998 RMK A01 T03530199  RH  040%=      5-min Rain = 0
KCO2 021911Z 16009KT 36/20 A2998 RMK A01 T03550199  RH  040%=      5-min Rain = 0
KCO2 021912Z 19006KT 36/20 A2998 RMK A01 T03560197  RH  039%=      5-min Rain = 0
KCO2 021913Z 20010KT 36/19 A2998 RMK A01 T03560192  RH  038%=      5-min Rain = 0
KCO2 021914Z 20009KT 36/19 A2998 RMK A01 T03560188  RH  037%=      5-min Rain = 0
KCO2 021915Z 18009KT 35/19 A2998 RMK A01 T03530189  RH  038%=      5-min Rain = 0
KCO2 021916Z 18013G19KT 36/19 A2998 RMK A01 T03560191  RH  038%=      5-min Rain = 0
KCO2 021917Z 17010KT 36/19 A2998 RMK A01 T03580190  RH  037%=      5-min Rain = 0
KCO2 021918Z 18011KT 36/19 A2998 RMK A01 T03610192  RH  037%=      5-min Rain = 0
KCO2 021919Z 20007KT 36/19 A2998 RMK A01 T03590191  RH  037%=      5-min Rain = 0
KCO2 021920Z 17009KT 36/19 A2997 RMK A01 T03560194  RH  039%=      5-min Rain = 0
KCO2 021921Z 16012KT 36/20 A2997 RMK A01 T03560200  RH  040%=      5-min Rain = 0
KCO2 021922Z 14014KT 36/20 A2997 RMK A01 T03570199  RH  040%=      5-min Rain = 0
KCO2 021923Z 14011KT 36/19 A2997 RMK A01 T03550194  RH  039%=      5-min Rain = 0
KCO2 021924Z 16012G17KT 35/19 A2997 RMK A01 T03490194  RH  040%=      5-min Rain = 0
KCO2 021925Z 18015KT 35/19 A2997 RMK A01 T03460191  RH  040%=      5-min Rain = 0
KCO2 021926Z 19010KT 35/19 A2997 RMK A01 T03460191  RH  040%=      5-min Rain = 0
KCO2 021927Z 12010KT 35/20 A2997 RMK A01 T03490200  RH  042%=      5-min Rain = 0
KCO2 021928Z 13014KT 35/20 A2997 RMK A01 T03520203  RH  042%=      5-min Rain = 0
KCO2 021929Z 13011KT 35/20 A2997 RMK A01 T03500203  RH  042%=      5-min Rain = 0
KCO2 021930Z 13014G19KT 35/20 A2997 RMK A01 T03500204  RH  042%=      5-min Rain = 0
KCO2 021931Z 13014KT 35/20 A2997 RMK A01 T03540201  RH  041%=      5-min Rain = 0
KCO2 021932Z 12012KT 36/20 A2997 RMK A01 T03560201  RH  041%=      5-min Rain = 0
KCO2 021933Z 12013KT 36/20 A2997 RMK A01 T03580203  RH  040%=      5-min Rain = 0
KCO2 021934Z 14015KT 36/20 A2997 RMK A01 T03590203  RH  040%=      5-min Rain = 0
KCO2 021935Z 13015KT 36/20 A2997 RMK A01 T03580201  RH  040%=      5-min Rain = 0
KCO2 021936Z 14012KT 36/20 A2997 RMK A01 T03570202  RH  040%=      5-min Rain = 0
KCO2 021937Z 16012KT 36/20 A2997 RMK A01 T03590201  RH  040%=      5-min Rain = 0
KCO2 021938Z 16011KT 36/20 A2997 RMK A01 T03590203  RH  040%=      5-min Rain = 0
KCO2 021939Z 17013KT 36/20 A2997 RMK A01 T03610202  RH  040%=      5-min Rain = 0
KCO2 021940Z 15012KT 36/20 A2997 RMK A01 T03600200  RH  039%=      5-min Rain = 0
KCO2 021941Z 13010KT 36/21 A2997 RMK A01 T03570207  RH  042%=      5-min Rain = 0
KCO2 021942Z 14012KT 36/21 A2997 RMK A01 T03610210  RH  042%=      5-min Rain = 0
KCO2 021943Z 14012G17KT 36/21 A2997 RMK A01 T03630212  RH  042%=      5-min Rain = 0
KCO2 021944Z 14015KT 37/21 A2997 RMK A01 T03650213  RH  041%=      5-min Rain = 0
KCO2 021945Z 14015KT 37/21 A2997 RMK A01 T03660210  RH  041%=      5-min Rain = 0
KCO2 021946Z 15013KT 36/21 A2997 RMK A01 T03620211  RH  041%=      5-min Rain = 0
KCO2 021947Z 14013KT 36/21 A2997 RMK A01 T03600208  RH  041%=      5-min Rain = 0
KCO2 021948Z 14012KT 36/21 A2997 RMK A01 T03590208  RH  041%=      5-min Rain = 0
KCO2 021949Z 15009KT 36/21 A2997 RMK A01 T03600207  RH  041%=      5-min Rain = 0
KCO2 021950Z 15010KT 36/21 A2997 RMK A01 T03610209  RH  041%=      5-min Rain = 0
KCO2 021951Z 13009KT 36/21 A2997 RMK A01 T03600210  RH  042%=      5-min Rain = 0
KCO2 021952Z 14014KT 36/21 A2997 RMK A01 T03570210  RH  043%=      5-min Rain = 0
KCO2 021953Z 16013KT 36/21 A2997 RMK A01 T03580209  RH  042%=      5-min Rain = 0
KCO2 021954Z 16012KT 36/20 A2997 RMK A01 T03570204  RH  041%=      5-min Rain = 0
KCO2 021955Z 15011KT 36/21 A2997 RMK A01 T03560207  RH  042%=      5-min Rain = 0
KCO2 021956Z 15013KT 36/21 A2997 RMK A01 T03550207  RH  042%=      5-min Rain = 0
KCO2 021957Z 15014KT 36/21 A2997 RMK A01 T03550207  RH  042%=      5-min Rain = 0
KCO2 021958Z 16012KT 36/21 A2997 RMK A01 T03560211  RH  043%=      5-min Rain = 0
KCO2 021959Z 16012KT 36/21 A2997 RMK A01 T03570211  RH  043%=      5-min Rain = 0
KCO2 022000Z 17008KT 36/21 A2997 RMK A01 T03550211  RH  043%=      5-min Rain = 0
KCO2 022001Z 15010KT 36/21 A2997 RMK A01 T03550210  RH  043%=      5-min Rain = 0
KCO2 022002Z 15011KT 36/21 A2997 RMK A01 T03560208  RH  042%=      5-min Rain = 0
KCO2 022003Z 15012KT 36/21 A2997 RMK A01 T03550208  RH  043%=      5-min Rain = 0
KCO2 022004Z 14009KT 36/21 A2997 RMK A01 T03560211  RH  043%=      5-min Rain = 0
KCO2 022005Z 13010G15KT 36/21 A2997 RMK A01 T03590210  RH  042%=      5-min Rain = 0
KCO2 022006Z 15012G17KT 36/21 A2997 RMK A01 T03600210  RH  042%=      5-min Rain = 0
KCO2 022007Z 17014KT 36/21 A2997 RMK A01 T03590205  RH  041%=      5-min Rain = 0
KCO2 022008Z 18012KT 36/20 A2997 RMK A01 T03560201  RH  040%=      5-min Rain = 0
KCO2 022009Z 14012KT 35/20 A2997 RMK A01 T03530203  RH  042%=      5-min Rain = 0
KCO2 022010Z 17012KT 36/20 A2997 RMK A01 T03550204  RH  041%=      5-min Rain = 0
KCO2 022011Z 17011KT 36/21 A2997 RMK A01 T03570205  RH  041%=      5-min Rain = 0
KCO2 022012Z 18011KT 36/21 A2997 RMK A01 T03570205  RH  041%=      5-min Rain = 0
KCO2 022013Z 19010KT 36/20 A2997 RMK A01 T03560204  RH  041%=      5-min Rain = 0
KCO2 022014Z 18008KT 35/21 A2997 RMK A01 T03520205  RH  042%=      5-min Rain = 0
KCO2 022015Z 16009KT 35/21 A2997 RMK A01 T03520208  RH  043%=      5-min Rain = 0
KCO2 022016Z 16014KT 36/21 A2997 RMK A01 T03580208  RH  042%=      5-min Rain = 0
KCO2 022017Z 14011KT 36/21 A2997 RMK A01 T03600205  RH  041%=      5-min Rain = 0
KCO2 022018Z 13006KT 36/20 A2996 RMK A01 T03580203  RH  040%=      5-min Rain = 0
KCO2 022019Z 15005KT 36/20 A2996 RMK A01 T03580204  RH  041%=      5-min Rain = 0
KCO2 022020Z 15008KT 36/21 A2996 RMK A01 T03590206  RH  041%=      5-min Rain = 0
KCO2 022021Z 13009KT 36/21 A2996 RMK A01 T03600209  RH  042%=      5-min Rain = 0
KCO2 022022Z 16009KT 36/21 A2996 RMK A01 T03600212  RH  042%=      5-min Rain = 0
KCO2 022023Z 14009KT 36/21 A2996 RMK A01 T03600207  RH  041%=      5-min Rain = 0
KCO2 022024Z 15010KT 36/20 A2996 RMK A01 T03590203  RH  040%=      5-min Rain = 0
KCO2 022025Z 14010KT 36/20 A2996 RMK A01 T03580203  RH  041%=      5-min Rain = 0
KCO2 022026Z 14011KT 36/20 A2996 RMK A01 T03580204  RH  041%=      5-min Rain = 0
KCO2 022027Z 13009KT 36/21 A2996 RMK A01 T03580205  RH  041%=      5-min Rain = 0
KCO2 022028Z 15011KT 36/21 A2996 RMK A01 T03560206  RH  042%=      5-min Rain = 0
KCO2 022029Z 13011KT 36/20 A2996 RMK A01 T03550204  RH  041%=      5-min Rain = 0
KCO2 022030Z 14013G18KT 35/21 A2996 RMK A01 T03540205  RH  042%=      5-min Rain = 0
KCO2 022031Z 16013KT 35/21 A2996 RMK A01 T03540205  RH  042%=      5-min Rain = 0
KCO2 022032Z 15011KT 36/20 A2996 RMK A01 T03560204  RH  041%=      5-min Rain = 0
KCO2 022033Z 14011KT 36/20 A2996 RMK A01 T03570201  RH  040%=      5-min Rain = 0
KCO2 022034Z 16012KT 36/20 A2996 RMK A01 T03560204  RH  041%=      5-min Rain = 0
KCO2 022035Z 17013KT 36/20 A2996 RMK A01 T03550204  RH  041%=      5-min Rain = 0
KCO2 022036Z 17011KT 35/21 A2996 RMK A01 T03520207  RH  043%=      5-min Rain = 0
KCO2 022037Z 17013KT 35/21 A2996 RMK A01 T03530208  RH  043%=      5-min Rain = 0
KCO2 022038Z 18012KT 36/21 A2996 RMK A01 T03550208  RH  042%=      5-min Rain = 0
KCO2 022039Z 14015KT 36/21 A2996 RMK A01 T03550208  RH  042%=      5-min Rain = 0
KCO2 022040Z 14012KT 36/21 A2996 RMK A01 T03560205  RH  042%=      5-min Rain = 0
KCO2 022041Z 13011KT 36/21 A2996 RMK A01 T03570206  RH  042%=      5-min Rain = 0
KCO2 022042Z 13010KT 36/21 A2996 RMK A01 T03580206  RH  041%=      5-min Rain = 0
KCO2 022043Z 12009KT 36/21 A2996 RMK A01 T03570206  RH  042%=      5-min Rain = 0
KCO2 022044Z 11012KT 36/21 A2996 RMK A01 T03550206  RH  042%=      5-min Rain = 0
KCO2 022045Z 13010G15KT 35/21 A2996 RMK A01 T03530207  RH  043%=      5-min Rain = 0
KCO2 022046Z 14011KT 35/21 A2996 RMK A01 T03520207  RH  043%=      5-min Rain = 0
KCO2 022047Z 14010KT 35/21 A2996 RMK A01 T03520206  RH  042%=      5-min Rain = 0
KCO2 022048Z 16010KT 35/21 A2996 RMK A01 T03530206  RH  042%=      5-min Rain = 0
KCO2 022049Z 16013KT 36/20 A2996 RMK A01 T03560201  RH  040%=      5-min Rain = 0
KCO2 022050Z 17013KT 36/20 A2996 RMK A01 T03590200  RH  040%=      5-min Rain = 0
KCO2 022051Z 16012KT 36/20 A2996 RMK A01 T03600200  RH  039%=      5-min Rain = 0
KCO2 022052Z 15008KT 36/20 A2996 RMK A01 T03590202  RH  040%=      5-min Rain = 0
KCO2 022053Z 14009KT 36/20 A2996 RMK A01 T03590202  RH  040%=      5-min Rain = 0
KCO2 022054Z 14008KT 36/20 A2996 RMK A01 T03580204  RH  041%=      5-min Rain = 0
KCO2 022055Z 15012KT 36/20 A2996 RMK A01 T03580202  RH  040%=      5-min Rain = 0
KCO2 022056Z 14009KT 36/20 A2996 RMK A01 T03570201  RH  040%=      5-min Rain = 0
KCO2 022057Z 14013KT 36/20 A2996 RMK A01 T03550203  RH  041%=      5-min Rain = 0
KCO2 022058Z 12010KT 35/20 A2996 RMK A01 T03540202  RH  041%=      5-min Rain = 0
KCO2 022059Z 12012KT 35/20 A2996 RMK A01 T03510202  RH  042%=      5-min Rain = 0
KCO2 022100Z 15013KT 35/20 A2996 RMK A01 T03530201  RH  041%=      5-min Rain = 0
KCO2 022101Z 16008KT 35/20 A2996 RMK A01 T03540200  RH  041%=      5-min Rain = 0
KCO2 022102Z 15007KT 35/20 A2996 RMK A01 T03540202  RH  041%=      5-min Rain = 0
KCO2 022103Z 14011KT 36/20 A2996 RMK A01 T03570201  RH  040%=      5-min Rain = 0
KCO2 022104Z 14013KT 36/20 A2996 RMK A01 T03580199  RH  039%=      5-min Rain = 0
KCO2 022105Z 15015KT 36/20 A2996 RMK A01 T03560200  RH  040%=      5-min Rain = 0
KCO2 022106Z 15014KT 35/20 A2996 RMK A01 T03530200  RH  041%=      5-min Rain = 0
KCO2 022107Z 15013KT 35/20 A2996 RMK A01 T03520197  RH  040%=      5-min Rain = 0
KCO2 022108Z 13012KT 35/20 A2995 RMK A01 T03520197  RH  040%=      5-min Rain = 0
KCO2 022109Z 13014KT 35/20 A2995 RMK A01 T03510196  RH  040%=      5-min Rain = 0
KCO2 022110Z 13010KT 35/19 A2995 RMK A01 T03510190  RH  039%=      5-min Rain = 0
KCO2 022111Z 13008KT 35/19 A2995 RMK A01 T03510186  RH  038%=      5-min Rain = 0
KCO2 022112Z 12005KT 35/19 A2995 RMK A01 T03520189  RH  038%=      5-min Rain = 0
KCO2 022113Z 13006KT 35/20 A2995 RMK A01 T03530199  RH  041%=      5-min Rain = 0
KCO2 022114Z 13010KT 36/20 A2995 RMK A01 T03560203  RH  041%=      5-min Rain = 0
KCO2 022115Z 13011KT 36/20 A2995 RMK A01 T03580202  RH  040%=      5-min Rain = 0
KCO2 022116Z 12011KT 36/20 A2995 RMK A01 T03590200  RH  040%=      5-min Rain = 0
KCO2 022117Z 12010KT 36/20 A2995 RMK A01 T03560199  RH  040%=      5-min Rain = 0
KCO2 022118Z 14010KT 35/20 A2995 RMK A01 T03530200  RH  041%=      5-min Rain = 0
KCO2 022119Z 14014KT 36/20 A2995 RMK A01 T03550195  RH  039%=      5-min Rain = 0
KCO2 022120Z 14014KT 36/19 A2995 RMK A01 T03570193  RH  038%=      5-min Rain = 0
KCO2 022121Z 14010KT 36/19 A2995 RMK A01 T03570194  RH  038%=      5-min Rain = 0
KCO2 022122Z 15009KT 36/19 A2995 RMK A01 T03560194  RH  039%=      5-min Rain = 0
KCO2 022123Z 15007KT 36/20 A2995 RMK A01 T03570197  RH  039%=      5-min Rain = 0
KCO2 022124Z 14008G14KT 36/20 A2994 RMK A01 T03610201  RH  039%=      5-min Rain = 0
KCO2 022125Z 13014KT 37/20 A2995 RMK A01 T03660197  RH  037%=      5-min Rain = 0
KCO2 022126Z 11013KT 37/19 A2995 RMK A01 T03650193  RH  037%=      5-min Rain = 0
KCO2 022127Z 13012KT 36/19 A2995 RMK A01 T03630193  RH  037%=      5-min Rain = 0
KCO2 022128Z 13010KT 36/19 A2995 RMK A01 T03610192  RH  037%=      5-min Rain = 0
KCO2 022129Z 16013KT 36/19 A2994 RMK A01 T03620193  RH  037%=      5-min Rain = 0
KCO2 022130Z 16012KT 36/19 A2995 RMK A01 T03620188  RH  036%=      5-min Rain = 0
KCO2 022131Z 15008KT 36/19 A2995 RMK A01 T03600187  RH  036%=      5-min Rain = 0
KCO2 022132Z 14009KT 36/19 A2994 RMK A01 T03580189  RH  037%=      5-min Rain = 0
KCO2 022133Z 15008KT 36/19 A2994 RMK A01 T03590185  RH  036%=      5-min Rain = 0
KCO2 022134Z 15010KT 36/18 A2994 RMK A01 T03630179  RH  034%=      5-min Rain = 0
KCO2 022135Z 16011G16KT 37/18 A2994 RMK A01 T03650177  RH  033%=      5-min Rain = 0
KCO2 022136Z 16012KT 36/18 A2994 RMK A01 T03640182  RH  034%=      5-min Rain = 0
KCO2 022137Z 16010KT 36/19 A2995 RMK A01 T03630186  RH  035%=      5-min Rain = 0
KCO2 022138Z 16011KT 36/19 A2995 RMK A01 T03640189  RH  036%=      5-min Rain = 0
KCO2 022139Z 15009KT 37/19 A2995 RMK A01 T03650191  RH  036%=      5-min Rain = 0
KCO2 022140Z 13014KT 37/19 A2995 RMK A01 T03660189  RH  036%=      5-min Rain = 0
KCO2 022141Z 13012KT 36/19 A2995 RMK A01 T03640187  RH  035%=      5-min Rain = 0
KCO2 022142Z 12011KT 36/19 A2995 RMK A01 T03610187  RH  036%=      5-min Rain = 0
KCO2 022143Z 12009KT 36/18 A2995 RMK A01 T03600182  RH  035%=      5-min Rain = 0
KCO2 022144Z 12011KT 36/18 A2995 RMK A01 T03580183  RH  036%=      5-min Rain = 0
KCO2 022145Z 12011KT 36/18 A2995 RMK A01 T03570179  RH  035%=      5-min Rain = 0
KCO2 022146Z 14010KT 36/18 A2995 RMK A01 T03550177  RH  035%=      5-min Rain = 0
KCO2 022147Z 13009KT 36/18 A2995 RMK A01 T03550178  RH  035%=      5-min Rain = 0
KCO2 022148Z 13007KT 36/19 A2995 RMK A01 T03550185  RH  037%=      5-min Rain = 0
KCO2 022149Z 14004KT 35/19 A2995 RMK A01 T03530186  RH  037%=      5-min Rain = 0
KCO2 022150Z 15006KT 35/19 A2995 RMK A01 T03510187  RH  038%=      5-min Rain = 0
KCO2 022151Z 14009KT 35/19 A2995 RMK A01 T03510188  RH  038%=      5-min Rain = 0
KCO2 022152Z 14008KT 35/19 A2995 RMK A01 T03540187  RH  038%=      5-min Rain = 0
KCO2 022153Z 14010KT 36/19 A2995 RMK A01 T03560187  RH  037%=      5-min Rain = 0
KCO2 022154Z 16008KT 36/19 A2995 RMK A01 T03590191  RH  037%=      5-min Rain = 0
KCO2 022155Z 16009KT 36/19 A2995 RMK A01 T03640193  RH  037%=      5-min Rain = 0
KCO2 022156Z 14009KT 37/19 A2995 RMK A01 T03670192  RH  036%=      5-min Rain = 0
KCO2 022157Z 14012KT 37/19 A2995 RMK A01 T03670190  RH  035%=      5-min Rain = 0
KCO2 022158Z 13008G13KT 37/19 A2995 RMK A01 T03650186  RH  035%=      5-min Rain = 0
KCO2 022159Z 14009G14KT 36/19 A2995 RMK A01 T03620188  RH  036%=      5-min Rain = 0
KCO2 022200Z 15009G14KT 36/19 A2995 RMK A01 T03600189  RH  037%=      5-min Rain = 0
KCO2 022201Z 16009KT 36/19 A2995 RMK A01 T03580190  RH  037%=      5-min Rain = 0
KCO2 022202Z 16009G15KT 36/19 A2995 RMK A01 T03580190  RH  037%=      5-min Rain = 0
KCO2 022203Z 15008KT 36/19 A2995 RMK A01 T03560188  RH  037%=      5-min Rain = 0
KCO2 022204Z 13011KT 35/19 A2995 RMK A01 T03530187  RH  038%=      5-min Rain = 0
KCO2 022205Z 15013KT 35/18 A2995 RMK A01 T03530183  RH  037%=      5-min Rain = 0
KCO2 022206Z 14014KT 35/18 A2995 RMK A01 T03520184  RH  037%=      5-min Rain = 0
KCO2 022207Z 13012KT 35/19 A2995 RMK A01 T03510188  RH  038%=      5-min Rain = 0
KCO2 022208Z 14012KT 35/19 A2995 RMK A01 T03510191  RH  039%=      5-min Rain = 0
KCO2 022209Z 15013KT 35/20 A2995 RMK A01 T03500195  RH  040%=      5-min Rain = 0
KCO2 022210Z 15014KT 35/20 A2995 RMK A01 T03490195  RH  040%=      5-min Rain = 0
KCO2 022211Z 15012KT 35/20 A2995 RMK A01 T03470195  RH  041%=      5-min Rain = 0
KCO2 022212Z 14014KT 35/20 A2995 RMK A01 T03470196  RH  041%=      5-min Rain = 0
KCO2 022213Z 14012KT 35/20 A2995 RMK A01 T03460195  RH  041%=      5-min Rain = 0
KCO2 022214Z 15010KT 35/19 A2995 RMK A01 T03460194  RH  041%=      5-min Rain = 0
KCO2 022215Z 15009KT 35/19 A2995 RMK A01 T03460193  RH  041%=      5-min Rain = 0
KCO2 022216Z 15007KT 35/19 A2995 RMK A01 T03450193  RH  041%=      5-min Rain = 0
KCO2 022217Z 16009KT 35/20 A2995 RMK A01 T03450196  RH  042%=      5-min Rain = 0
KCO2 022218Z 17012KT 35/19 A2995 RMK A01 T03460193  RH  041%=      5-min Rain = 0
KCO2 022219Z 17010G16KT 35/19 A2995 RMK A01 T03450193  RH  041%=      5-min Rain = 0
KCO2 022220Z 17012KT 35/19 A2995 RMK A01 T03480194  RH  041%=      5-min Rain = 0
KCO2 022221Z 17014KT 35/19 A2995 RMK A01 T03520193  RH  039%=      5-min Rain = 0
KCO2 022222Z 17012KT 35/19 A2995 RMK A01 T03530194  RH  039%=      5-min Rain = 0
KCO2 022223Z 16012KT 35/20 A2995 RMK A01 T03540195  RH  039%=      5-min Rain = 0
KCO2 022224Z 15013KT 36/19 A2995 RMK A01 T03570193  RH  038%=      5-min Rain = 0
KCO2 022225Z 16014KT 36/19 A2995 RMK A01 T03570193  RH  038%=      5-min Rain = 0
KCO2 022226Z 16014KT 36/19 A2995 RMK A01 T03570191  RH  038%=      5-min Rain = 0
KCO2 022227Z 17015KT 36/19 A2995 RMK A01 T03570190  RH  038%=      5-min Rain = 0
KCO2 022228Z 16014KT 35/19 A2995 RMK A01 T03540191  RH  038%=      5-min Rain = 0
KCO2 022229Z 15015KT 35/19 A2995 RMK A01 T03530192  RH  039%=      5-min Rain = 0
KCO2 022230Z 15013KT 35/19 A2995 RMK A01 T03520191  RH  039%=      5-min Rain = 0
KCO2 022231Z 16015KT 35/19 A2995 RMK A01 T03500189  RH  039%=      5-min Rain = 0
KCO2 022232Z 16014KT 35/19 A2995 RMK A01 T03470186  RH  039%=      5-min Rain = 0
KCO2 022233Z 17012KT 34/19 A2995 RMK A01 T03430188  RH  040%=      5-min Rain = 0
KCO2 022234Z 17012KT 34/19 A2995 RMK A01 T03410188  RH  041%=      5-min Rain = 0
KCO2 022235Z 17013KT 34/19 A2995 RMK A01 T03400187  RH  041%=      5-min Rain = 0
KCO2 022236Z 16011KT 34/19 A2995 RMK A01 T03390185  RH  040%=      5-min Rain = 0
KCO2 022237Z 16010KT 34/19 A2995 RMK A01 T03380186  RH  041%=      5-min Rain = 0
KCO2 022238Z 16013KT 34/18 A2994 RMK A01 T03380184  RH  040%=      5-min Rain = 0
KCO2 022239Z 16012KT 34/19 A2994 RMK A01 T03410187  RH  040%=      5-min Rain = 0
KCO2 022240Z 15012KT 35/19 A2994 RMK A01 T03450188  RH  040%=      5-min Rain = 0
KCO2 022241Z 16012KT 35/19 A2994 RMK A01 T03480188  RH  039%=      5-min Rain = 0
KCO2 022242Z 16013KT 35/19 A2994 RMK A01 T03490188  RH  039%=      5-min Rain = 0
KCO2 022243Z 16012KT 35/19 A2994 RMK A01 T03480185  RH  038%=      5-min Rain = 0
KCO2 022244Z 16013KT 35/19 A2994 RMK A01 T03460185  RH  039%=      5-min Rain = 0
KCO2 022245Z 16013KT 34/18 A2994 RMK A01 T03430183  RH  039%=      5-min Rain = 0
KCO2 022246Z 16012KT 34/18 A2995 RMK A01 T03410182  RH  039%=      5-min Rain = 0
KCO2 022247Z 16011KT 34/18 A2995 RMK A01 T03400183  RH  039%=      5-min Rain = 0
KCO2 022248Z 16010KT 34/18 A2995 RMK A01 T03400182  RH  039%=      5-min Rain = 0
KCO2 022249Z 16011KT 34/18 A2995 RMK A01 T03410183  RH  039%=      5-min Rain = 0
KCO2 022250Z 17011KT 34/18 A2995 RMK A01 T03410183  RH  039%=      5-min Rain = 0
KCO2 022251Z 17010KT 34/18 A2995 RMK A01 T03410183  RH  039%=      5-min Rain = 0
KCO2 022252Z 17009KT 34/18 A2995 RMK A01 T03410183  RH  039%=      5-min Rain = 0
KCO2 022253Z 16010KT 34/18 A2995 RMK A01 T03410182  RH  039%=      5-min Rain = 0
KCO2 022254Z 16011KT 34/18 A2995 RMK A01 T03400181  RH  039%=      5-min Rain = 0
KCO2 022255Z 16009KT 34/18 A2995 RMK A01 T03400180  RH  039%=      5-min Rain = 0
KCO2 022256Z 17006KT 34/18 A2995 RMK A01 T03410183  RH  039%=      5-min Rain = 0
KCO2 022257Z 16007KT 34/18 A2995 RMK A01 T03430183  RH  039%=      5-min Rain = 0
KCO2 022258Z 16008KT 34/18 A2995 RMK A01 T03430181  RH  038%=      5-min Rain = 0
KCO2 022259Z 16009KT 34/18 A2995 RMK A01 T03420180  RH  038%=      5-min Rain = 0
KCO2 022300Z 17008KT 34/18 A2995 RMK A01 T03400179  RH  039%=      5-min Rain = 0
KCO2 022301Z 17009KT 34/18 A2995 RMK A01 T03390179  RH  039%=      5-min Rain = 0
KCO2 022302Z 18008KT 34/18 A2995 RMK A01 T03380179  RH  039%=      5-min Rain = 0
KCO2 022303Z 17008KT 34/18 A2995 RMK A01 T03380180  RH  039%=      5-min Rain = 0
KCO2 022304Z 17008KT 34/18 A2995 RMK A01 T03390181  RH  039%=      5-min Rain = 0
KCO2 022305Z 17010KT 34/18 A2995 RMK A01 T03400182  RH  039%=      5-min Rain = 0
KCO2 022306Z 16012KT 34/19 A2995 RMK A01 T03410186  RH  040%=      5-min Rain = 0
KCO2 022307Z 16009KT 34/19 A2995 RMK A01 T03400189  RH  041%=      5-min Rain = 0
KCO2 022308Z 16010KT 34/19 A2995 RMK A01 T03390190  RH  042%=      5-min Rain = 0
KCO2 022309Z 15010KT 34/19 A2995 RMK A01 T03370191  RH  042%=      5-min Rain = 0
KCO2 022310Z 15011KT 34/19 A2995 RMK A01 T03360192  RH  043%=      5-min Rain = 0
KCO2 022311Z 16011KT 34/19 A2995 RMK A01 T03360193  RH  043%=      5-min Rain = 0
KCO2 022312Z 16010KT 34/19 A2995 RMK A01 T03350192  RH  043%=      5-min Rain = 0
KCO2 022313Z 15010KT 33/19 A2995 RMK A01 T03340194  RH  044%=      5-min Rain = 0
KCO2 022314Z 15011KT 33/20 A2995 RMK A01 T03340196  RH  044%=      5-min Rain = 0
KCO2 022315Z 15012KT 33/20 A2995 RMK A01 T03330199  RH  045%=      5-min Rain = 0
KCO2 022316Z 15013KT 33/20 A2995 RMK A01 T03320200  RH  046%=      5-min Rain = 0
KCO2 022317Z 15012KT 33/20 A2995 RMK A01 T03320200  RH  046%=      5-min Rain = 0
KCO2 022318Z 14011G16KT 33/20 A2995 RMK A01 T03310200  RH  046%=      5-min Rain = 0
KCO2 022319Z 14013KT 33/20 A2995 RMK A01 T03300201  RH  047%=      5-min Rain = 0
KCO2 022320Z 15009KT 33/20 A2995 RMK A01 T03300201  RH  047%=      5-min Rain = 0
KCO2 022321Z 15012KT 33/20 A2995 RMK A01 T03300202  RH  047%=      5-min Rain = 0
KCO2 022322Z 15011KT 33/20 A2995 RMK A01 T03290201  RH  047%=      5-min Rain = 0
KCO2 022323Z 15012KT 33/20 A2995 RMK A01 T03290201  RH  047%=      5-min Rain = 0
KCO2 022324Z 15013KT 33/20 A2995 RMK A01 T03280201  RH  047%=      5-min Rain = 0
KCO2 022325Z 14012KT 33/20 A2995 RMK A01 T03280201  RH  047%=      5-min Rain = 0
KCO2 022326Z 15011KT 33/20 A2995 RMK A01 T03280201  RH  047%=      5-min Rain = 0
KCO2 022327Z 15011KT 33/20 A2994 RMK A01 T03280202  RH  048%=      5-min Rain = 0
KCO2 022328Z 15013KT 33/20 A2994 RMK A01 T03280202  RH  047%=      5-min Rain = 0
KCO2 022329Z 15012KT 33/20 A2994 RMK A01 T03280202  RH  048%=      5-min Rain = 0
KCO2 022330Z 16010KT 33/20 A2994 RMK A01 T03280203  RH  048%=      5-min Rain = 0
KCO2 022331Z 16009KT 33/20 A2994 RMK A01 T03270204  RH  048%=      5-min Rain = 0
KCO2 022332Z 16013G19KT 33/20 A2993 RMK A01 T03280204  RH  048%=      5-min Rain = 0
KCO2 022333Z 16012G18KT 33/20 A2993 RMK A01 T03280203  RH  048%=      5-min Rain = 0
KCO2 022334Z 17011KT 33/20 A2993 RMK A01 T03270204  RH  048%=      5-min Rain = 0
KCO2 022335Z 17011KT 33/20 A2993 RMK A01 T03270201  RH  048%=      5-min Rain = 0
KCO2 022336Z 16010KT 33/20 A2993 RMK A01 T03250199  RH  047%=      5-min Rain = 0
KCO2 022337Z 16011KT 33/20 A2993 RMK A01 T03250198  RH  047%=      5-min Rain = 0
KCO2 022338Z 16012KT 33/20 A2993 RMK A01 T03250198  RH  047%=      5-min Rain = 0
KCO2 022339Z 16013KT 32/20 A2993 RMK A01 T03240197  RH  047%=      5-min Rain = 0
KCO2 022340Z 16012KT 32/20 A2993 RMK A01 T03230196  RH  047%=      5-min Rain = 0
KCO2 022341Z 15012KT 32/20 A2993 RMK A01 T03240195  RH  047%=      5-min Rain = 0
KCO2 022342Z 16014KT 32/19 A2993 RMK A01 T03240193  RH  046%=      5-min Rain = 0
KCO2 022343Z 15012KT 32/19 A2993 RMK A01 T03240193  RH  046%=      5-min Rain = 0
KCO2 022344Z 15011KT 32/19 A2993 RMK A01 T03240193  RH  046%=      5-min Rain = 0
KCO2 022345Z 16013KT 32/19 A2993 RMK A01 T03240191  RH  045%=      5-min Rain = 0
KCO2 022346Z 16010KT 33/19 A2993 RMK A01 T03250190  RH  045%=      5-min Rain = 0
KCO2 022347Z 15011KT 33/19 A2993 RMK A01 T03260190  RH  045%=      5-min Rain = 0
KCO2 022348Z 15012KT 33/19 A2993 RMK A01 T03260186  RH  044%=      5-min Rain = 0
KCO2 022349Z 16012KT 33/19 A2993 RMK A01 T03260187  RH  044%=      5-min Rain = 0
KCO2 022350Z 16010KT 33/19 A2994 RMK A01 T03260186  RH  044%=      5-min Rain = 0
KCO2 022351Z 15011KT 33/19 A2994 RMK A01 T03270190  RH  044%=      5-min Rain = 0
KCO2 022352Z 16011KT 33/19 A2994 RMK A01 T03270191  RH  045%=      5-min Rain = 0
KCO2 022353Z 15012KT 33/19 A2994 RMK A01 T03270193  RH  045%=      5-min Rain = 0
KCO2 022354Z 15008KT 33/20 A2994 RMK A01 T03260195  RH  046%=      5-min Rain = 0
KCO2 022355Z 14009KT 33/20 A2994 RMK A01 T03260197  RH  047%=      5-min Rain = 0
KCO2 022356Z 14010KT 33/20 A2994 RMK A01 T03260198  RH  047%=      5-min Rain = 0
KCO2 022357Z 15012KT 33/20 A2994 RMK A01 T03260200  RH  047%=      5-min Rain = 0
KCO2 022358Z 15010KT 33/20 A2994 RMK A01 T03260201  RH  048%=      5-min Rain = 0
KCO2 022359Z 14010KT 33/20 A2994 RMK A01 T03250201  RH  048%=      5-min Rain = 0
KCO2 030000Z 15010KT 33/20 A2994 RMK A01 T03250202  RH  048%=      5-min Rain = 0
KCO2 030001Z 14009KT 33/20 A2994 RMK A01 T03250202  RH  048%=      5-min Rain = 0
KCO2 030002Z 14007KT 32/20 A2994 RMK A01 T03240203  RH  049%=      5-min Rain = 0
KCO2 030003Z 14011KT 32/20 A2994 RMK A01 T03240204  RH  049%=      5-min Rain = 0
KCO2 030004Z 14009KT 32/20 A2994 RMK A01 T03240203  RH  049%=      5-min Rain = 0
KCO2 030005Z 14012KT 32/20 A2994 RMK A01 T03240203  RH  049%=      5-min Rain = 0
KCO2 030006Z 14011KT 32/20 A2994 RMK A01 T03240202  RH  049%=      5-min Rain = 0
KCO2 030007Z 14011KT 32/20 A2994 RMK A01 T03230203  RH  049%=      5-min Rain = 0
KCO2 030008Z 15012KT 32/20 A2994 RMK A01 T03230202  RH  049%=      5-min Rain = 0
KCO2 030009Z 15008KT 32/20 A2994 RMK A01 T03230203  RH  049%=      5-min Rain = 0
KCO2 030010Z 15009KT 32/20 A2994 RMK A01 T03230203  RH  049%=      5-min Rain = 0
KCO2 030011Z 15009KT 32/20 A2994 RMK A01 T03220202  RH  049%=      5-min Rain = 0
KCO2 030012Z 15010KT 32/20 A2994 RMK A01 T03220202  RH  049%=      5-min Rain = 0
KCO2 030013Z 15010KT 32/20 A2994 RMK A01 T03220201  RH  049%=      5-min Rain = 0
KCO2 030014Z 15010KT 32/20 A2994 RMK A01 T03220200  RH  049%=      5-min Rain = 0
KCO2 030015Z 15010KT 32/20 A2994 RMK A01 T03220200  RH  048%=      5-min Rain = 0
KCO2 030016Z 15010KT 32/20 A2994 RMK A01 T03220199  RH  048%=      5-min Rain = 0
KCO2 030017Z 14009KT 32/20 A2995 RMK A01 T03220199  RH  048%=      5-min Rain = 0
KCO2 030018Z 14009KT 32/20 A2995 RMK A01 T03220199  RH  048%=      5-min Rain = 0
KCO2 030019Z 14010KT 32/20 A2995 RMK A01 T03220199  RH  048%=      5-min Rain = 0
KCO2 030020Z 14010KT 32/20 A2994 RMK A01 T03220198  RH  048%=      5-min Rain = 0
KCO2 030021Z 14008KT 32/20 A2995 RMK A01 T03220197  RH  048%=      5-min Rain = 0
KCO2 030022Z 14009KT 32/20 A2995 RMK A01 T03220198  RH  048%=      5-min Rain = 0
KCO2 030023Z 14010KT 32/20 A2995 RMK A01 T03220197  RH  048%=      5-min Rain = 0
KCO2 030024Z 14008KT 32/20 A2995 RMK A01 T03220197  RH  048%=      5-min Rain = 0
KCO2 030025Z 15008KT 32/20 A2995 RMK A01 T03220198  RH  048%=      5-min Rain = 0
KCO2 030026Z 15008KT 32/20 A2995 RMK A01 T03220198  RH  048%=      5-min Rain = 0
KCO2 030027Z 14007KT 32/20 A2995 RMK A01 T03220198  RH  048%=      5-min Rain = 0
KCO2 030028Z 15008KT 32/20 A2995 RMK A01 T03220198  RH  048%=      5-min Rain = 0
KCO2 030029Z 14008KT 32/20 A2994 RMK A01 T03220198  RH  048%=      5-min Rain = 0
KCO2 030030Z 13008KT 32/20 A2994 RMK A01 T03210197  RH  048%=      5-min Rain = 0
KCO2 030031Z 14010KT 32/20 A2994 RMK A01 T03210197  RH  048%=      5-min Rain = 0
KCO2 030032Z 13010KT 32/20 A2994 RMK A01 T03210195  RH  047%=      5-min Rain = 0
KCO2 030033Z 13010KT 32/19 A2994 RMK A01 T03210193  RH  047%=      5-min Rain = 0
KCO2 030034Z 13011KT 32/19 A2994 RMK A01 T03220193  RH  047%=      5-min Rain = 0
KCO2 030035Z 13009KT 32/19 A2994 RMK A01 T03220194  RH  047%=      5-min Rain = 0
KCO2 030036Z 14009KT 32/19 A2994 RMK A01 T03220194  RH  047%=      5-min Rain = 0
KCO2 030037Z 13009KT 32/19 A2994 RMK A01 T03220194  RH  047%=      5-min Rain = 0
KCO2 030038Z 13008KT 32/20 A2994 RMK A01 T03220195  RH  047%=      5-min Rain = 0
KCO2 030039Z 14009KT 32/19 A2994 RMK A01 T03220194  RH  047%=      5-min Rain = 0
KCO2 030040Z 14007KT 32/20 A2994 RMK A01 T03220195  RH  047%=      5-min Rain = 0
KCO2 030041Z 14010KT 32/20 A2994 RMK A01 T03220195  RH  047%=      5-min Rain = 0
KCO2 030042Z 15010KT 32/19 A2994 RMK A01 T03220194  RH  047%=      5-min Rain = 0
KCO2 030043Z 14008KT 32/20 A2994 RMK A01 T03220195  RH  047%=      5-min Rain = 0
KCO2 030044Z 14012KT 32/19 A2994 RMK A01 T03220194  RH  047%=      5-min Rain = 0
KCO2 030045Z 14009KT 32/19 A2994 RMK A01 T03220193  RH  047%=      5-min Rain = 0
KCO2 030046Z 14008KT 32/19 A2994 RMK A01 T03220193  RH  047%=      5-min Rain = 0
KCO2 030047Z 14009KT 32/19 A2994 RMK A01 T03210194  RH  047%=      5-min Rain = 0
KCO2 030048Z 14008KT 32/20 A2994 RMK A01 T03220195  RH  047%=      5-min Rain = 0
KCO2 030049Z 14007KT 32/20 A2994 RMK A01 T03210195  RH  047%=      5-min Rain = 0
KCO2 030050Z 15007KT 32/20 A2994 RMK A01 T03210195  RH  047%=      5-min Rain = 0
KCO2 030051Z 14007KT 32/20 A2994 RMK A01 T03200195  RH  048%=      5-min Rain = 0
KCO2 030052Z 14009KT 32/20 A2994 RMK A01 T03200195  RH  048%=      5-min Rain = 0
KCO2 030053Z 14008KT 32/19 A2994 RMK A01 T03200194  RH  047%=      5-min Rain = 0
KCO2 030054Z 14009KT 32/19 A2994 RMK A01 T03200194  RH  047%=      5-min Rain = 0
KCO2 030055Z 15011KT 32/19 A2994 RMK A01 T03200193  RH  047%=      5-min Rain = 0
KCO2 030056Z 14010KT 32/19 A2994 RMK A01 T03200193  RH  047%=      5-min Rain = 0
KCO2 030057Z 15009KT 32/19 A2994 RMK A01 T03200193  RH  047%=      5-min Rain = 0
KCO2 030058Z 15010KT 32/19 A2994 RMK A01 T03200194  RH  047%=      5-min Rain = 0
KCO2 030059Z 15009KT 32/19 A2994 RMK A01 T03200193  RH  047%=      5-min Rain = 0
KCO2 030100Z 15008KT 32/19 A2994 RMK A01 T03200194  RH  047%=      5-min Rain = 0
KCO2 030101Z 15009KT 32/19 A2994 RMK A01 T03200194  RH  047%=      5-min Rain = 0
KCO2 030102Z 15010KT 32/19 A2994 RMK A01 T03200194  RH  047%=      5-min Rain = 0
KCO2 030103Z 15010KT 32/19 A2994 RMK A01 T03200193  RH  047%=      5-min Rain = 0
KCO2 030104Z 15010KT 32/19 A2994 RMK A01 T03200193  RH  047%=      5-min Rain = 0
KCO2 030105Z 15010KT 32/19 A2994 RMK A01 T03200192  RH  047%=      5-min Rain = 0
KCO2 030106Z 14011KT 32/19 A2994 RMK A01 T03200192  RH  047%=      5-min Rain = 0
KCO2 030107Z 15009KT 32/19 A2994 RMK A01 T03200192  RH  047%=      5-min Rain = 0
KCO2 030108Z 15009KT 32/19 A2994 RMK A01 T03200192  RH  047%=      5-min Rain = 0
KCO2 030109Z 15008KT 32/19 A2994 RMK A01 T03200193  RH  047%=      5-min Rain = 0
KCO2 030110Z 15009KT 32/19 A2994 RMK A01 T03190193  RH  047%=      5-min Rain = 0
KCO2 030111Z 15010KT 32/19 A2994 RMK A01 T03190193  RH  047%=      5-min Rain = 0
KCO2 030112Z 15009KT 32/19 A2994 RMK A01 T03190192  RH  047%=      5-min Rain = 0
KCO2 030113Z 15010KT 32/19 A2994 RMK A01 T03190192  RH  047%=      5-min Rain = 0
KCO2 030114Z 15008KT 32/19 A2994 RMK A01 T03180192  RH  047%=      5-min Rain = 0
KCO2 030115Z 15009KT 32/19 A2994 RMK A01 T03180192  RH  047%=      5-min Rain = 0
KCO2 030116Z 15011KT 32/19 A2994 RMK A01 T03180192  RH  047%=      5-min Rain = 0
KCO2 030117Z 15011KT 32/19 A2994 RMK A01 T03180191  RH  047%=      5-min Rain = 0
KCO2 030118Z 15010KT 32/19 A2994 RMK A01 T03180190  RH  047%=      5-min Rain = 0
KCO2 030119Z 15009KT 32/19 A2994 RMK A01 T03190191  RH  047%=      5-min Rain = 0
KCO2 030120Z 15010KT 32/19 A2994 RMK A01 T03180191  RH  047%=      5-min Rain = 0
KCO2 030121Z 15010KT 32/19 A2994 RMK A01 T03180191  RH  047%=      5-min Rain = 0
KCO2 030122Z 14010KT 32/19 A2994 RMK A01 T03180191  RH  047%=      5-min Rain = 0
KCO2 030123Z 15009KT 32/19 A2994 RMK A01 T03180190  RH  047%=      5-min Rain = 0
KCO2 030124Z 15010KT 32/19 A2994 RMK A01 T03180190  RH  047%=      5-min Rain = 0
KCO2 030125Z 15011KT 32/19 A2994 RMK A01 T03180189  RH  046%=      5-min Rain = 0
KCO2 030126Z 15011KT 32/19 A2994 RMK A01 T03180188  RH  046%=      5-min Rain = 0
KCO2 030127Z 15011KT 32/19 A2995 RMK A01 T03180188  RH  046%=      5-min Rain = 0
KCO2 030128Z 15010KT 32/19 A2995 RMK A01 T03180188  RH  046%=      5-min Rain = 0
KCO2 030129Z 15010KT 32/19 A2995 RMK A01 T03180187  RH  046%=      5-min Rain = 0
KCO2 030130Z 15010KT 32/19 A2995 RMK A01 T03180186  RH  046%=      5-min Rain = 0
KCO2 030131Z 15010KT 32/19 A2995 RMK A01 T03180186  RH  045%=      5-min Rain = 0
KCO2 030132Z 15013KT 32/18 A2995 RMK A01 T03180184  RH  045%=      5-min Rain = 0
KCO2 030133Z 14012KT 32/18 A2995 RMK A01 T03180180  RH  044%=      5-min Rain = 0
KCO2 030134Z 15010KT 32/18 A2995 RMK A01 T03180179  RH  044%=      5-min Rain = 0
KCO2 030135Z 14009KT 32/18 A2995 RMK A01 T03180180  RH  044%=      5-min Rain = 0
KCO2 030136Z 14011KT 32/18 A2995 RMK A01 T03180178  RH  043%=      5-min Rain = 0
KCO2 030137Z 14013KT 32/17 A2995 RMK A01 T03180173  RH  042%=      5-min Rain = 0
KCO2 030138Z 14010KT 32/17 A2995 RMK A01 T03190172  RH  042%=      5-min Rain = 0
KCO2 030139Z 14011KT 32/17 A2995 RMK A01 T03190171  RH  041%=      5-min Rain = 0
KCO2 030140Z 14011KT 32/17 A2995 RMK A01 T03190171  RH  041%=      5-min Rain = 0
KCO2 030141Z 15009KT 32/17 A2995 RMK A01 T03190171  RH  041%=      5-min Rain = 0
KCO2 030142Z 14009KT 32/17 A2995 RMK A01 T03190170  RH  041%=      5-min Rain = 0
KCO2 030143Z 14011KT 32/17 A2995 RMK A01 T03180167  RH  040%=      5-min Rain = 0
KCO2 030144Z 14009KT 32/17 A2995 RMK A01 T03180165  RH  040%=      5-min Rain = 0
KCO2 030145Z 14010KT 32/17 A2995 RMK A01 T03180165  RH  040%=      5-min Rain = 0
KCO2 030146Z 14010KT 32/16 A2995 RMK A01 T03180164  RH  040%=      5-min Rain = 0
KCO2 030147Z 14010KT 32/16 A2995 RMK A01 T03180163  RH  039%=      5-min Rain = 0
KCO2 030148Z 14009KT 32/16 A2995 RMK A01 T03180162  RH  039%=      5-min Rain = 0
KCO2 030149Z 14010KT 32/16 A2995 RMK A01 T03180162  RH  039%=      5-min Rain = 0
KCO2 030150Z 14009KT 32/16 A2995 RMK A01 T03170162  RH  039%=      5-min Rain = 0
KCO2 030151Z 14008KT 32/16 A2995 RMK A01 T03170162  RH  039%=      5-min Rain = 0
KCO2 030152Z 14009KT 32/16 A2995 RMK A01 T03160161  RH  039%=      5-min Rain = 0
KCO2 030153Z 14009KT 32/16 A2995 RMK A01 T03160161  RH  039%=      5-min Rain = 0
KCO2 030154Z 14009KT 32/16 A2995 RMK A01 T03160159  RH  039%=      5-min Rain = 0
KCO2 030155Z 15010KT 32/16 A2995 RMK A01 T03160159  RH  039%=      5-min Rain = 0
KCO2 030156Z 14010KT 32/16 A2995 RMK A01 T03160159  RH  039%=      5-min Rain = 0
KCO2 030157Z 15011KT 32/16 A2995 RMK A01 T03160158  RH  039%=      5-min Rain = 0
KCO2 030158Z 14010KT 32/16 A2995 RMK A01 T03160157  RH  038%=      5-min Rain = 0
KCO2 030159Z 15010KT 32/16 A2995 RMK A01 T03160157  RH  038%=      5-min Rain = 0
KCO2 030200Z 14010KT 32/16 A2995 RMK A01 T03160157  RH  038%=      5-min Rain = 0
KCO2 030201Z 15010KT 32/16 A2995 RMK A01 T03160156  RH  038%=      5-min Rain = 0
KCO2 030202Z 15011KT 32/16 A2995 RMK A01 T03160157  RH  038%=      5-min Rain = 0
KCO2 030203Z 14009KT 32/16 A2995 RMK A01 T03150157  RH  038%=      5-min Rain = 0
KCO2 030204Z 15011KT 32/16 A2995 RMK A01 T03150157  RH  038%=      5-min Rain = 0
KCO2 030205Z 14010KT 32/16 A2995 RMK A01 T03150156  RH  038%=      5-min Rain = 0
KCO2 030206Z 15009KT 31/16 A2995 RMK A01 T03140156  RH  038%=      5-min Rain = 0
KCO2 030207Z 15008KT 31/16 A2995 RMK A01 T03140156  RH  039%=      5-min Rain = 0
KCO2 030208Z 15010KT 31/16 A2995 RMK A01 T03140156  RH  039%=      5-min Rain = 0
KCO2 030209Z 15008KT 31/16 A2995 RMK A01 T03130155  RH  038%=      5-min Rain = 0
KCO2 030210Z 15010KT 31/16 A2995 RMK A01 T03130155  RH  039%=      5-min Rain = 0
KCO2 030211Z 14009KT 31/16 A2995 RMK A01 T03130155  RH  039%=      5-min Rain = 0
KCO2 030212Z 15009KT 31/16 A2995 RMK A01 T03130155  RH  038%=      5-min Rain = 0
KCO2 030213Z 14010KT 31/15 A2995 RMK A01 T03120154  RH  038%=      5-min Rain = 0
KCO2 030214Z 15009KT 31/16 A2995 RMK A01 T03130155  RH  039%=      5-min Rain = 0
KCO2 030215Z 14011KT 31/16 A2995 RMK A01 T03120155  RH  039%=      5-min Rain = 0
KCO2 030216Z 15009KT 31/15 A2995 RMK A01 T03120154  RH  038%=      5-min Rain = 0
KCO2 030217Z 14009KT 31/15 A2995 RMK A01 T03120154  RH  039%=      5-min Rain = 0
KCO2 030218Z 14009KT 31/16 A2995 RMK A01 T03110155  RH  039%=      5-min Rain = 0
KCO2 030219Z 14009KT 31/16 A2995 RMK A01 T03110155  RH  039%=      5-min Rain = 0
KCO2 030220Z 14009KT 31/16 A2995 RMK A01 T03100155  RH  039%=      5-min Rain = 0
KCO2 030221Z 14007KT 31/16 A2996 RMK A01 T03100155  RH  039%=      5-min Rain = 0
KCO2 030222Z 14006KT 31/16 A2996 RMK A01 T03090156  RH  040%=      5-min Rain = 0
KCO2 030223Z 14007KT 31/16 A2996 RMK A01 T03080156  RH  040%=      5-min Rain = 0
KCO2 030224Z 15008KT 31/16 A2996 RMK A01 T03070156  RH  040%=      5-min Rain = 0
KCO2 030225Z 14007KT 31/16 A2996 RMK A01 T03060156  RH  040%=      5-min Rain = 0
KCO2 030226Z 14007KT 31/16 A2996 RMK A01 T03060156  RH  040%=      5-min Rain = 0
KCO2 030227Z 14006KT 31/16 A2996 RMK A01 T03050156  RH  040%=      5-min Rain = 0
KCO2 030228Z 14007KT 30/16 A2996 RMK A01 T03040156  RH  041%=      5-min Rain = 0
KCO2 030229Z 14006KT 30/16 A2996 RMK A01 T03040156  RH  041%=      5-min Rain = 0
KCO2 030230Z 14006KT 30/16 A2996 RMK A01 T03030157  RH  041%=      5-min Rain = 0
KCO2 030231Z 14006KT 30/16 A2996 RMK A01 T03020157  RH  041%=      5-min Rain = 0
KCO2 030232Z 14006KT 30/16 A2996 RMK A01 T03010157  RH  042%=      5-min Rain = 0
KCO2 030233Z 14006KT 30/16 A2996 RMK A01 T03010157  RH  042%=      5-min Rain = 0
KCO2 030234Z 14007KT 30/16 A2996 RMK A01 T03000157  RH  042%=      5-min Rain = 0
KCO2 030235Z 14006KT 30/16 A2996 RMK A01 T03000157  RH  042%=      5-min Rain = 0
KCO2 030236Z 14006KT 30/16 A2996 RMK A01 T02990158  RH  042%=      5-min Rain = 0
KCO2 030237Z 14006KT 30/16 A2996 RMK A01 T02980157  RH  042%=      5-min Rain = 0
KCO2 030238Z 14006KT 30/16 A2996 RMK A01 T02980157  RH  043%=      5-min Rain = 0
KCO2 030239Z 14006KT 30/16 A2996 RMK A01 T02970157  RH  043%=      5-min Rain = 0
KCO2 030240Z 14006KT 30/16 A2996 RMK A01 T02960157  RH  043%=      5-min Rain = 0
KCO2 030241Z 13006KT 30/16 A2996 RMK A01 T02960158  RH  043%=      5-min Rain = 0
KCO2 030242Z 13006KT 30/16 A2996 RMK A01 T02950157  RH  043%=      5-min Rain = 0
KCO2 030243Z 13006KT 29/16 A2996 RMK A01 T02940157  RH  043%=      5-min Rain = 0
KCO2 030244Z 13006KT 29/16 A2996 RMK A01 T02930157  RH  044%=      5-min Rain = 0
KCO2 030245Z 14006KT 29/16 A2996 RMK A01 T02930157  RH  044%=      5-min Rain = 0
KCO2 030246Z 13006KT 29/16 A2997 RMK A01 T02930156  RH  043%=      5-min Rain = 0
KCO2 030247Z 14006KT 29/16 A2997 RMK A01 T02930156  RH  044%=      5-min Rain = 0
KCO2 030248Z 14006KT 29/16 A2997 RMK A01 T02920156  RH  044%=      5-min Rain = 0
KCO2 030249Z 14006KT 29/16 A2997 RMK A01 T02920157  RH  044%=      5-min Rain = 0
KCO2 030250Z 13006KT 29/16 A2997 RMK A01 T02910156  RH  044%=      5-min Rain = 0
KCO2 030251Z 13006KT 29/16 A2997 RMK A01 T02910157  RH  044%=      5-min Rain = 0
KCO2 030252Z 13006KT 29/16 A2997 RMK A01 T02910157  RH  044%=      5-min Rain = 0
KCO2 030253Z 13006KT 29/16 A2997 RMK A01 T02900157  RH  045%=      5-min Rain = 0
KCO2 030254Z 13006KT 29/16 A2997 RMK A01 T02890157  RH  045%=      5-min Rain = 0
KCO2 030255Z 13006KT 29/16 A2997 RMK A01 T02890157  RH  045%=      5-min Rain = 0
KCO2 030256Z 13006KT 29/16 A2997 RMK A01 T02880157  RH  045%=      5-min Rain = 0
KCO2 030257Z 13007KT 29/16 A2997 RMK A01 T02880157  RH  045%=      5-min Rain = 0
KCO2 030258Z 13007KT 29/16 A2997 RMK A01 T02870157  RH  045%=      5-min Rain = 0
KCO2 030259Z 13006KT 29/16 A2997 RMK A01 T02870157  RH  045%=      5-min Rain = 0
KCO2 030300Z 13006KT 29/16 A2997 RMK A01 T02870157  RH  045%=      5-min Rain = 0
KCO2 030301Z 12006KT 29/16 A2997 RMK A01 T02860157  RH  045%=      5-min Rain = 0
KCO2 030302Z 12006KT 29/16 A2997 RMK A01 T02850157  RH  046%=      5-min Rain = 0
KCO2 030303Z 12005KT 29/16 A2997 RMK A01 T02850157  RH  046%=      5-min Rain = 0
KCO2 030304Z 12005KT 28/16 A2998 RMK A01 T02840157  RH  046%=      5-min Rain = 0
KCO2 030305Z 11005KT 28/16 A2998 RMK A01 T02840158  RH  046%=      5-min Rain = 0
KCO2 030306Z 11005KT 28/16 A2998 RMK A01 T02840158  RH  047%=      5-min Rain = 0
KCO2 030307Z 11005KT 28/16 A2998 RMK A01 T02830158  RH  047%=      5-min Rain = 0
KCO2 030308Z 11006KT 28/16 A2998 RMK A01 T02830158  RH  047%=      5-min Rain = 0
KCO2 030309Z 11006KT 28/16 A2998 RMK A01 T02830158  RH  047%=      5-min Rain = 0
KCO2 030310Z 11006KT 28/16 A2998 RMK A01 T02830158  RH  047%=      5-min Rain = 0
KCO2 030311Z 11006KT 28/16 A2998 RMK A01 T02830159  RH  047%=      5-min Rain = 0
KCO2 030312Z 11006KT 28/16 A2998 RMK A01 T02820159  RH  047%=      5-min Rain = 0
KCO2 030313Z 11006KT 28/16 A2998 RMK A01 T02820159  RH  047%=      5-min Rain = 0
KCO2 030314Z 11006KT 28/16 A2998 RMK A01 T02820160  RH  047%=      5-min Rain = 0
KCO2 030315Z 11006KT 28/16 A2998 RMK A01 T02810160  RH  048%=      5-min Rain = 0
KCO2 030316Z 11006KT 28/16 A2998 RMK A01 T02810160  RH  048%=      5-min Rain = 0
KCO2 030317Z 11006KT 28/16 A2998 RMK A01 T02800160  RH  048%=      5-min Rain = 0
KCO2 030318Z 11006KT 28/16 A2998 RMK A01 T02800161  RH  048%=      5-min Rain = 0
KCO2 030319Z 11006KT 28/16 A2999 RMK A01 T02800161  RH  048%=      5-min Rain = 0
KCO2 030320Z 11006KT 28/16 A2999 RMK A01 T02800161  RH  048%=      5-min Rain = 0
KCO2 030321Z 11006KT 28/16 A2999 RMK A01 T02800161  RH  048%=      5-min Rain = 0
KCO2 030322Z 12006KT 28/16 A2999 RMK A01 T02800162  RH  049%=      5-min Rain = 0
KCO2 030323Z 12006KT 28/16 A2999 RMK A01 T02800162  RH  049%=      5-min Rain = 0
KCO2 030324Z 12005KT 28/16 A2999 RMK A01 T02800163  RH  049%=      5-min Rain = 0
KCO2 030325Z 12006KT 28/16 A2999 RMK A01 T02790163  RH  049%=      5-min Rain = 0
KCO2 030326Z 12005KT 28/16 A2999 RMK A01 T02790163  RH  049%=      5-min Rain = 0
KCO2 030327Z 12005KT 28/16 A2999 RMK A01 T02800164  RH  049%=      5-min Rain = 0
KCO2 030328Z 12005KT 28/16 A2999 RMK A01 T02790164  RH  049%=      5-min Rain = 0
KCO2 030329Z 12006KT 28/16 A2999 RMK A01 T02790164  RH  050%=      5-min Rain = 0
KCO2 030330Z 12006KT 28/17 A2999 RMK A01 T02790165  RH  050%=      5-min Rain = 0
KCO2 030331Z 12005KT 28/17 A30 RMK A01 T02790165  RH  050%=      5-min Rain = 0
KCO2 030332Z 12005KT 28/17 A30 RMK A01 T02790166  RH  050%=      5-min Rain = 0
KCO2 030333Z 11006KT 28/17 A30 RMK A01 T02790167  RH  050%=      5-min Rain = 0
KCO2 030334Z 11006KT 28/17 A30 RMK A01 T02780167  RH  051%=      5-min Rain = 0
KCO2 030335Z 11006KT 28/17 A30 RMK A01 T02780167  RH  051%=      5-min Rain = 0
KCO2 030336Z 11006KT 28/17 A30 RMK A01 T02790168  RH  051%=      5-min Rain = 0
KCO2 030337Z 12006KT 28/17 A30 RMK A01 T02780168  RH  051%=      5-min Rain = 0
KCO2 030338Z 11006KT 28/17 A30 RMK A01 T02790168  RH  051%=      5-min Rain = 0
KCO2 030339Z 12006KT 28/17 A30 RMK A01 T02800168  RH  051%=      5-min Rain = 0
KCO2 030340Z 12006KT 28/17 A30 RMK A01 T02800168  RH  051%=      5-min Rain = 0
KCO2 030341Z 11005KT 28/17 A30 RMK A01 T02800169  RH  051%=      5-min Rain = 0
KCO2 030342Z 12005KT 28/17 A30 RMK A01 T02800169  RH  051%=      5-min Rain = 0
KCO2 030343Z 12005KT 28/17 A30 RMK A01 T02800169  RH  051%=      5-min Rain = 0
KCO2 030344Z 11005KT 28/17 A30 RMK A01 T02800169  RH  051%=      5-min Rain = 0
KCO2 030345Z 12005KT 28/17 A30 RMK A01 T02810170  RH  051%=      5-min Rain = 0
KCO2 030346Z 11005KT 28/17 A30 RMK A01 T02810170  RH  051%=      5-min Rain = 0
KCO2 030347Z 11006KT 28/17 A30 RMK A01 T02800170  RH  051%=      5-min Rain = 0
KCO2 030348Z 11006KT 28/17 A30 RMK A01 T02800170  RH  051%=      5-min Rain = 0
KCO2 030349Z 11006KT 28/17 A30 RMK A01 T02800171  RH  051%=      5-min Rain = 0
KCO2 030350Z 11007KT 28/17 A30 RMK A01 T02800170  RH  051%=      5-min Rain = 0
KCO2 030351Z 12007KT 28/17 A30 RMK A01 T02800170  RH  051%=      5-min Rain = 0
KCO2 030352Z 12007KT 28/17 A30 RMK A01 T02800170  RH  051%=      5-min Rain = 0
KCO2 030353Z 12006KT 28/17 A30 RMK A01 T02810170  RH  051%=      5-min Rain = 0
KCO2 030354Z 12006KT 28/17 A30 RMK A01 T02810170  RH  051%=      5-min Rain = 0
KCO2 030355Z 12007KT 28/17 A30 RMK A01 T02810171  RH  051%=      5-min Rain = 0
KCO2 030356Z 12007KT 28/17 A30 RMK A01 T02820171  RH  051%=      5-min Rain = 0
KCO2 030357Z 12007KT 28/17 A30 RMK A01 T02820171  RH  051%=      5-min Rain = 0
KCO2 030358Z 12006KT 28/17 A30 RMK A01 T02820171  RH  051%=      5-min Rain = 0
KCO2 030359Z 12006KT 28/17 A30 RMK A01 T02820171  RH  051%=      5-min Rain = 0
KCO2 030400Z 12006KT 28/17 A30 RMK A01 T02830170  RH  050%=      5-min Rain = 0
KCO2 030401Z 12007KT 28/17 A30 RMK A01 T02840170  RH  050%=      5-min Rain = 0
KCO2 030402Z 12007KT 29/17 A30 RMK A01 T02850169  RH  050%=      5-min Rain = 0
KCO2 030403Z 12006KT 29/17 A30 RMK A01 T02850169  RH  049%=      5-min Rain = 0
KCO2 030404Z 13007KT 29/17 A30 RMK A01 T02860169  RH  049%=      5-min Rain = 0
KCO2 030405Z 13006KT 29/17 A30 RMK A01 T02870170  RH  049%=      5-min Rain = 0
KCO2 030406Z 13006KT 29/17 A30 RMK A01 T02870169  RH  049%=      5-min Rain = 0
KCO2 030407Z 13006KT 29/17 A30 RMK A01 T02870169  RH  049%=      5-min Rain = 0
KCO2 030408Z 13006KT 29/17 A30 RMK A01 T02880168  RH  048%=      5-min Rain = 0
KCO2 030409Z 13006KT 29/17 A30 RMK A01 T02880168  RH  048%=      5-min Rain = 0
KCO2 030410Z 13006KT 29/17 A30 RMK A01 T02880168  RH  048%=      5-min Rain = 0
KCO2 030411Z 13006KT 29/17 A3001 RMK A01 T02890168  RH  048%=      5-min Rain = 0
KCO2 030412Z 14006KT 29/17 A3001 RMK A01 T02890168  RH  048%=      5-min Rain = 0
KCO2 030413Z 14005KT 29/17 A3001 RMK A01 T02890168  RH  048%=      5-min Rain = 0
KCO2 030414Z 14006KT 29/17 A3001 RMK A01 T02890168  RH  048%=      5-min Rain = 0
KCO2 030415Z 14006KT 29/17 A3001 RMK A01 T02890167  RH  048%=      5-min Rain = 0
KCO2 030416Z 14006KT 29/17 A3001 RMK A01 T02900168  RH  048%=      5-min Rain = 0
KCO2 030417Z 14006KT 29/17 A3001 RMK A01 T02900167  RH  047%=      5-min Rain = 0
KCO2 030418Z 14006KT 29/17 A3001 RMK A01 T02900167  RH  047%=      5-min Rain = 0
KCO2 030419Z 13006KT 29/17 A3001 RMK A01 T02900167  RH  047%=      5-min Rain = 0
KCO2 030420Z 14006KT 29/17 A3001 RMK A01 T02910167  RH  047%=      5-min Rain = 0
KCO2 030421Z 14007KT 29/17 A3001 RMK A01 T02910167  RH  047%=      5-min Rain = 0
KCO2 030422Z 14006KT 29/17 A3001 RMK A01 T02910167  RH  047%=      5-min Rain = 0
KCO2 030423Z 14006KT 29/17 A3001 RMK A01 T02910168  RH  047%=      5-min Rain = 0
KCO2 030424Z 14007KT 29/17 A3001 RMK A01 T02900167  RH  047%=      5-min Rain = 0
KCO2 030425Z 13006KT 29/17 A3001 RMK A01 T02900167  RH  047%=      5-min Rain = 0
KCO2 030426Z 14006KT 29/17 A3001 RMK A01 T02900168  RH  048%=      5-min Rain = 0
KCO2 030427Z 14006KT 29/17 A3001 RMK A01 T02900168  RH  048%=      5-min Rain = 0
KCO2 030428Z 13006KT 29/17 A3001 RMK A01 T02890168  RH  048%=      5-min Rain = 0
KCO2 030429Z 13005KT 29/17 A3001 RMK A01 T02890168  RH  048%=      5-min Rain = 0
KCO2 030430Z 14006KT 29/17 A3001 RMK A01 T02880168  RH  048%=      5-min Rain = 0
KCO2 030431Z 13005KT 29/17 A3001 RMK A01 T02880168  RH  048%=      5-min Rain = 0
KCO2 030432Z 13006KT 29/17 A3001 RMK A01 T02880168  RH  048%=      5-min Rain = 0
KCO2 030433Z 13005KT 29/17 A3001 RMK A01 T02870168  RH  049%=      5-min Rain = 0
KCO2 030434Z 13005KT 29/17 A3001 RMK A01 T02860168  RH  049%=      5-min Rain = 0
KCO2 030435Z 13006KT 29/17 A3001 RMK A01 T02860168  RH  049%=      5-min Rain = 0
KCO2 030436Z 13005KT 29/17 A3001 RMK A01 T02850168  RH  049%=      5-min Rain = 0
KCO2 030437Z 13005KT 28/17 A3001 RMK A01 T02840168  RH  049%=      5-min Rain = 0
KCO2 030438Z 13006KT 28/17 A3001 RMK A01 T02840168  RH  050%=      5-min Rain = 0
KCO2 030439Z 13006KT 28/17 A3001 RMK A01 T02830168  RH  050%=      5-min Rain = 0
KCO2 030440Z 12006KT 28/17 A3001 RMK A01 T02820168  RH  050%=      5-min Rain = 0
KCO2 030441Z 13006KT 28/17 A3001 RMK A01 T02810168  RH  050%=      5-min Rain = 0
KCO2 030442Z 13006KT 28/17 A3001 RMK A01 T02810168  RH  050%=      5-min Rain = 0
KCO2 030443Z 13006KT 28/17 A3001 RMK A01 T02800168  RH  050%=      5-min Rain = 0
KCO2 030444Z 12007KT 28/17 A3001 RMK A01 T02800167  RH  050%=      5-min Rain = 0
KCO2 030445Z 13006KT 28/17 A3001 RMK A01 T02790166  RH  050%=      5-min Rain = 0
KCO2 030446Z 13007KT 28/17 A3001 RMK A01 T02790166  RH  050%=      5-min Rain = 0
KCO2 030447Z 13007KT 28/17 A3001 RMK A01 T02790165  RH  050%=      5-min Rain = 0
KCO2 030448Z 13006KT 28/17 A3001 RMK A01 T02800166  RH  050%=      5-min Rain = 0
KCO2 030449Z 12006KT 28/17 A3002 RMK A01 T02800166  RH  050%=      5-min Rain = 0
KCO2 030450Z 13006KT 28/17 A3002 RMK A01 T02790165  RH  050%=      5-min Rain = 0
KCO2 030451Z 13006KT 28/17 A3002 RMK A01 T02780166  RH  050%=      5-min Rain = 0
KCO2 030452Z 13007KT 28/16 A3002 RMK A01 T02770164  RH  050%=      5-min Rain = 0
KCO2 030453Z 12007KT 28/17 A3002 RMK A01 T02780165  RH  050%=      5-min Rain = 0
KCO2 030454Z 12007KT 28/17 A3002 RMK A01 T02780166  RH  050%=      5-min Rain = 0
KCO2 030455Z 13006KT 28/17 A3002 RMK A01 T02780165  RH  050%=      5-min Rain = 0
KCO2 030456Z 13006KT 28/17 A3001 RMK A01 T02770166  RH  051%=      5-min Rain = 0
KCO2 030457Z 13006KT 28/17 A3001 RMK A01 T02760166  RH  051%=      5-min Rain = 0
KCO2 030458Z 13006KT 28/17 A3001 RMK A01 T02750167  RH  052%=      5-min Rain = 0
KCO2 030459Z 13007KT 27/17 A3001 RMK A01 T02740167  RH  052%=      5-min Rain = 0

Page generated in 0.12 seconds.